Wetterdaten: aktuell Sonntag, 07.03.2021 10:17
Datum Zeit Temp. Feuchte A. Luftdruck Regen Wind Richtung Richtung Taupunkt Windben
07.03.2021 10:17 2,5 C 79 % 1023,2 hPa 0,0 mm 0,7 km/h (0 Bft) W-SW 241 -0,8 C 2,4 km/h (1 Bft)
07.03.2021 10:16 2,5 C 78 % 1023,3 hPa 0,0 mm 4,1 km/h (1 Bft) SW 235 -0,9 C 14,4 km/h (3 Bft)
07.03.2021 10:15 2,4 C 79 % 1023,3 hPa 0,0 mm 6,1 km/h (2 Bft) W-SW 243 -0,9 C 14,4 km/h (3 Bft)
07.03.2021 10:14 2,4 C 79 % 1023,2 hPa 0,0 mm 5,2 km/h (1 Bft) SW 232 -0,9 C 12,0 km/h (2 Bft)
07.03.2021 10:13 2,4 C 79 % 1023,2 hPa 0,0 mm 2,9 km/h (1 Bft) W-SW 238 -0,9 C 7,2 km/h (2 Bft)
07.03.2021 10:12 2,4 C 79 % 1023,3 hPa 0,0 mm 4,4 km/h (1 Bft) W-SW 256 -0,9 C 7,2 km/h (2 Bft)
07.03.2021 10:11 2,4 C 79 % 1023,2 hPa 0,0 mm 2,7 km/h (1 Bft) SW 219 -0,9 C 9,6 km/h (2 Bft)
07.03.2021 10:10 2,4 C 79 % 1023,2 hPa 0,0 mm 1,7 km/h (1 Bft) SW 232 -0,9 C 9,6 km/h (2 Bft)
07.03.2021 10:09 2,3 C 79 % 1023,3 hPa 0,0 mm 0,5 km/h (0 Bft) W-SW 250 -1,0 C 2,4 km/h (1 Bft)
07.03.2021 10:08 2,3 C 79 % 1023,3 hPa 0,0 mm 1,5 km/h (1 Bft) W-SW 243 -1,0 C 7,2 km/h (2 Bft)
07.03.2021 10:07 2,3 C 79 % 1023,3 hPa 0,0 mm 1,1 km/h (1 Bft) S-SW 205 -1,0 C 4,8 km/h (1 Bft)
07.03.2021 10:06 2,3 C 79 % 1023,3 hPa 0,0 mm 4,3 km/h (1 Bft) SW 236 -1,0 C 9,6 km/h (2 Bft)
07.03.2021 10:05 2,3 C 79 % 1023,3 hPa 0,0 mm 2,9 km/h (1 Bft) SO 142 -1,0 C 7,2 km/h (2 Bft)
07.03.2021 10:04 2,3 C 79 % 1023,3 hPa 0,0 mm 1,5 km/h (1 Bft) W-SW 253 -1,0 C 9,6 km/h (2 Bft)
07.03.2021 10:03 2,3 C 79 % 1023,3 hPa 0,0 mm 2,2 km/h (1 Bft) S-SW 202 -1,0 C 4,8 km/h (1 Bft)
07.03.2021 10:02 2,3 C 79 % 1023,3 hPa 0,0 mm 2,8 km/h (1 Bft) S 184 -1,0 C 14,4 km/h (3 Bft)
07.03.2021 10:00 2,2 C 79 % 1023,3 hPa 0,0 mm 1,0 km/h (0 Bft) W-SW 249 -1,1 C 4,8 km/h (1 Bft)
07.03.2021 09:59 2,2 C 79 % 1023,3 hPa 0,0 mm 0,6 km/h (0 Bft) W 259 -1,1 C 4,8 km/h (1 Bft)
07.03.2021 09:58 2,2 C 79 % 1023,3 hPa 0,0 mm 0,6 km/h (0 Bft) W-SW 246 -1,1 C 2,4 km/h (1 Bft)
07.03.2021 09:57 2,2 C 79 % 1023,3 hPa 0,0 mm 3,9 km/h (1 Bft) SW 226 -1,1 C 7,2 km/h (2 Bft)
07.03.2021 09:56 2,2 C 79 % 1023,3 hPa 0,0 mm 2,1 km/h (1 Bft) W-NW 283 -1,1 C 4,8 km/h (1 Bft)
07.03.2021 09:55 2,2 C 79 % 1023,3 hPa 0,0 mm 2,5 km/h (1 Bft) S-SW 195 -1,1 C 7,2 km/h (2 Bft)
07.03.2021 09:54 2,2 C 79 % 1023,3 hPa 0,0 mm 3,2 km/h (1 Bft) SW 226 -1,1 C 9,6 km/h (2 Bft)
07.03.2021 09:53 2,2 C 79 % 1023,4 hPa 0,0 mm 2,7 km/h (1 Bft) SW 225 -1,1 C 7,2 km/h (2 Bft)
07.03.2021 09:52 2,2 C 79 % 1023,3 hPa 0,0 mm 1,3 km/h (1 Bft) S-SW 203 -1,1 C 4,8 km/h (1 Bft)
07.03.2021 09:51 2,1 C 79 % 1023,3 hPa 0,0 mm 0,3 km/h (0 Bft) S-SO 158 -1,2 C 2,4 km/h (1 Bft)
07.03.2021 09:50 2,1 C 79 % 1023,4 hPa 0,0 mm 1,5 km/h (1 Bft) W-SW 248 -1,2 C 7,2 km/h (2 Bft)
07.03.2021 09:49 2,1 C 79 % 1023,4 hPa 0,0 mm 0,3 km/h (0 Bft) S 186 -1,2 C 2,4 km/h (1 Bft)
07.03.2021 09:48 2,1 C 79 % 1023,4 hPa 0,0 mm 0,2 km/h (0 Bft) SW 236 -1,2 C 2,4 km/h (1 Bft)
07.03.2021 09:47 2,1 C 79 % 1023,4 hPa 0,0 mm 0,1 km/h (0 Bft) W 266 -1,2 C 2,4 km/h (1 Bft)
07.03.2021 09:46 2,1 C 79 % 1023,5 hPa 0,0 mm 0,7 km/h (0 Bft) W-SW 252 -1,2 C 4,8 km/h (1 Bft)
07.03.2021 09:45 2,1 C 79 % 1023,5 hPa 0,0 mm 2,3 km/h (1 Bft) W 270 -1,2 C 7,2 km/h (2 Bft)
07.03.2021 09:44 2,0 C 79 % 1023,5 hPa 0,0 mm 0,0 km/h (0 Bft) W-SW 245 -1,2 C 0,0 km/h (0 Bft)
07.03.2021 09:43 2,0 C 79 % 1023,5 hPa 0,0 mm 0,1 km/h (0 Bft) W-SW 243 -1,2 C 2,4 km/h (1 Bft)
07.03.2021 09:42 2,0 C 79 % 1023,5 hPa 0,0 mm 0,8 km/h (0 Bft) SW 214 -1,2 C 4,8 km/h (1 Bft)
07.03.2021 09:41 2,0 C 79 % 1023,5 hPa 0,0 mm 2,0 km/h (1 Bft) S-SW 195 -1,2 C 4,8 km/h (1 Bft)
07.03.2021 09:40 2,0 C 79 % 1023,5 hPa 0,0 mm 1,2 km/h (1 Bft) W-SW 246 -1,2 C 4,8 km/h (1 Bft)
07.03.2021 09:39 1,9 C 79 % 1023,5 hPa 0,0 mm 0,8 km/h (0 Bft) SW 236 -1,3 C 4,8 km/h (1 Bft)
07.03.2021 09:38 1,9 C 79 % 1023,5 hPa 0,0 mm 0,1 km/h (0 Bft) S-SO 166 -1,3 C 2,4 km/h (1 Bft)
07.03.2021 09:37 1,9 C 79 % 1023,5 hPa 0,0 mm 0,6 km/h (0 Bft) W-SW 238 -1,3 C 2,4 km/h (1 Bft)
07.03.2021 09:36 1,9 C 79 % 1023,5 hPa 0,0 mm 0,4 km/h (0 Bft) W-SW 257 -1,3 C 2,4 km/h (1 Bft)
07.03.2021 09:35 1,9 C 79 % 1023,5 hPa 0,0 mm 0,6 km/h (0 Bft) W-SW 243 -1,3 C 2,4 km/h (1 Bft)
07.03.2021 09:34 1,8 C 79 % 1023,5 hPa 0,0 mm 2,5 km/h (1 Bft) SW 236 -1,4 C 7,2 km/h (2 Bft)
07.03.2021 09:33 1,8 C 79 % 1023,5 hPa 0,0 mm 1,9 km/h (1 Bft) W 267 -1,4 C 4,8 km/h (1 Bft)
07.03.2021 09:32 1,8 C 78 % 1023,5 hPa 0,0 mm 2,1 km/h (1 Bft) SW 236 -1,6 C 7,2 km/h (2 Bft)
07.03.2021 09:31 1,8 C 78 % 1023,5 hPa 0,0 mm 1,0 km/h (0 Bft) W-SW 257 -1,6 C 4,8 km/h (1 Bft)
07.03.2021 09:30 1,8 C 78 % 1023,5 hPa 0,0 mm 3,9 km/h (1 Bft) W 264 -1,6 C 7,2 km/h (2 Bft)
07.03.2021 09:29 1,8 C 78 % 1023,5 hPa 0,0 mm 0,6 km/h (0 Bft) W-SW 242 -1,6 C 4,8 km/h (1 Bft)
07.03.2021 09:28 1,8 C 78 % 1023,5 hPa 0,0 mm 3,8 km/h (1 Bft) S-SO 162 -1,6 C 9,6 km/h (2 Bft)
07.03.2021 09:27 1,8 C 78 % 1023,6 hPa 0,0 mm 5,0 km/h (1 Bft) W-SW 248 -1,6 C 12,0 km/h (2 Bft)
07.03.2021 09:26 1,8 C 78 % 1023,5 hPa 0,0 mm 4,4 km/h (1 Bft) S 189 -1,6 C 9,6 km/h (2 Bft)
07.03.2021 09:25 1,8 C 78 % 1023,6 hPa 0,0 mm 3,3 km/h (1 Bft) W 273 -1,6 C 9,6 km/h (2 Bft)
07.03.2021 09:24 1,8 C 78 % 1023,5 hPa 0,0 mm 0,8 km/h (0 Bft) W-SW 246 -1,6 C 2,4 km/h (1 Bft)
07.03.2021 09:23 1,8 C 78 % 1023,6 hPa 0,0 mm 3,1 km/h (1 Bft) SO 138 -1,6 C 7,2 km/h (2 Bft)
07.03.2021 09:22 1,8 C 78 % 1023,6 hPa 0,0 mm 0,1 km/h (0 Bft) W-SW 245 -1,6 C 2,4 km/h (1 Bft)
07.03.2021 09:21 1,8 C 78 % 1023,6 hPa 0,0 mm 1,4 km/h (1 Bft) SW 233 -1,6 C 4,8 km/h (1 Bft)
07.03.2021 09:20 1,8 C 78 % 1023,6 hPa 0,0 mm 0,6 km/h (0 Bft) S-SW 195 -1,6 C 4,8 km/h (1 Bft)
07.03.2021 09:19 1,8 C 78 % 1023,6 hPa 0,0 mm 1,4 km/h (1 Bft) SW 229 -1,6 C 7,2 km/h (2 Bft)
07.03.2021 09:18 1,8 C 78 % 1023,6 hPa 0,0 mm 1,2 km/h (1 Bft) S 186 -1,6 C 4,8 km/h (1 Bft)
07.03.2021 09:17 1,8 C 79 % 1023,6 hPa 0,0 mm 2,1 km/h (1 Bft) W-NW 284 -1,4 C 7,2 km/h (2 Bft)
07.03.2021 09:16 1,8 C 79 % 1023,7 hPa 0,0 mm 0,0 km/h (0 Bft) W-SW 257 -1,4 C 0,0 km/h (0 Bft)
07.03.2021 09:15 1,8 C 78 % 1023,6 hPa 0,0 mm 0,3 km/h (0 Bft) W 259 -1,6 C 2,4 km/h (1 Bft)
07.03.2021 09:14 1,8 C 78 % 1023,7 hPa 0,0 mm 1,4 km/h (1 Bft) W 276 -1,6 C 2,4 km/h (1 Bft)
07.03.2021 09:13 1,8 C 79 % 1023,6 hPa 0,0 mm 0,1 km/h (0 Bft) SW 232 -1,4 C 2,4 km/h (1 Bft)
07.03.2021 09:12 1,8 C 79 % 1023,6 hPa 0,0 mm 0,1 km/h (0 Bft) W-SW 252 -1,4 C 2,4 km/h (1 Bft)
07.03.2021 09:11 1,8 C 78 % 1023,6 hPa 0,0 mm 0,4 km/h (0 Bft) S-SW 198 -1,6 C 2,4 km/h (1 Bft)
07.03.2021 09:10 1,7 C 78 % 1023,6 hPa 0,0 mm 1,2 km/h (1 Bft) SW 236 -1,7 C 4,8 km/h (1 Bft)
07.03.2021 09:09 1,7 C 78 % 1023,6 hPa 0,0 mm 0,3 km/h (0 Bft) W-SW 247 -1,7 C 2,4 km/h (1 Bft)
07.03.2021 09:08 1,7 C 78 % 1023,7 hPa 0,0 mm 1,3 km/h (1 Bft) W-SW 248 -1,7 C 7,2 km/h (2 Bft)
07.03.2021 09:07 1,7 C 78 % 1023,6 hPa 0,0 mm 3,5 km/h (1 Bft) S 187 -1,7 C 9,6 km/h (2 Bft)
07.03.2021 09:06 1,7 C 78 % 1023,6 hPa 0,0 mm 3,5 km/h (1 Bft) W-SW 238 -1,7 C 9,6 km/h (2 Bft)
07.03.2021 09:05 1,7 C 78 % 1023,6 hPa 0,0 mm 3,4 km/h (1 Bft) S-SW 212 -1,7 C 7,2 km/h (2 Bft)
07.03.2021 09:04 1,7 C 78 % 1023,7 hPa 0,0 mm 1,7 km/h (1 Bft) SW 218 -1,7 C 4,8 km/h (1 Bft)
07.03.2021 09:03 1,7 C 79 % 1023,7 hPa 0,0 mm 1,2 km/h (1 Bft) W-SW 242 -1,5 C 4,8 km/h (1 Bft)
07.03.2021 09:02 1,7 C 79 % 1023,7 hPa 0,0 mm 0,9 km/h (0 Bft) SW 221 -1,5 C 4,8 km/h (1 Bft)
07.03.2021 09:00 1,7 C 79 % 1023,7 hPa 0,0 mm 3,2 km/h (1 Bft) W-SW 247 -1,5 C 9,6 km/h (2 Bft)
07.03.2021 08:59 1,7 C 79 % 1023,7 hPa 0,0 mm 1,8 km/h (1 Bft) SW 214 -1,5 C 4,8 km/h (1 Bft)
07.03.2021 08:58 1,7 C 79 % 1023,7 hPa 0,0 mm 1,4 km/h (1 Bft) W-SW 240 -1,5 C 4,8 km/h (1 Bft)
07.03.2021 08:57 1,7 C 79 % 1023,7 hPa 0,0 mm 1,0 km/h (0 Bft) SW 219 -1,5 C 2,4 km/h (1 Bft)
07.03.2021 08:56 1,7 C 79 % 1023,7 hPa 0,0 mm 0,4 km/h (0 Bft) SW 231 -1,5 C 4,8 km/h (1 Bft)
07.03.2021 08:55 1,6 C 79 % 1023,7 hPa 0,0 mm 0,4 km/h (0 Bft) W-SW 257 -1,6 C 2,4 km/h (1 Bft)
07.03.2021 08:54 1,6 C 79 % 1023,7 hPa 0,0 mm 1,7 km/h (1 Bft) W 262 -1,6 C 9,6 km/h (2 Bft)
07.03.2021 08:53 1,6 C 79 % 1023,7 hPa 0,0 mm 1,4 km/h (1 Bft) S-SO 159 -1,6 C 4,8 km/h (1 Bft)
07.03.2021 08:52 1,6 C 79 % 1023,7 hPa 0,0 mm 3,0 km/h (1 Bft) SW 227 -1,6 C 9,6 km/h (2 Bft)
07.03.2021 08:51 1,6 C 79 % 1023,7 hPa 0,0 mm 0,3 km/h (0 Bft) S-SW 206 -1,6 C 2,4 km/h (1 Bft)
07.03.2021 08:50 1,6 C 79 % 1023,7 hPa 0,0 mm 0,2 km/h (0 Bft) W-SW 242 -1,6 C 2,4 km/h (1 Bft)
07.03.2021 08:49 1,6 C 79 % 1023,7 hPa 0,0 mm 0,1 km/h (0 Bft) SW 231 -1,6 C 2,4 km/h (1 Bft)
07.03.2021 08:48 1,6 C 79 % 1023,7 hPa 0,0 mm 1,6 km/h (1 Bft) W-SW 255 -1,6 C 4,8 km/h (1 Bft)
07.03.2021 08:47 1,6 C 79 % 1023,7 hPa 0,0 mm 0,8 km/h (0 Bft) W-SW 243 -1,6 C 2,4 km/h (1 Bft)
07.03.2021 08:46 1,6 C 79 % 1023,7 hPa 0,0 mm 0,3 km/h (0 Bft) S 179 -1,6 C 2,4 km/h (1 Bft)
07.03.2021 08:45 1,5 C 79 % 1023,7 hPa 0,0 mm 0,9 km/h (0 Bft) W-NW 302 -1,7 C 4,8 km/h (1 Bft)
07.03.2021 08:44 1,5 C 79 % 1023,7 hPa 0,0 mm 2,0 km/h (1 Bft) SW 225 -1,7 C 7,2 km/h (2 Bft)
07.03.2021 08:43 1,5 C 79 % 1023,8 hPa 0,0 mm 0,1 km/h (0 Bft) SW 231 -1,7 C 2,4 km/h (1 Bft)
07.03.2021 08:42 1,5 C 79 % 1023,7 hPa 0,0 mm 3,4 km/h (1 Bft) S 169 -1,7 C 7,2 km/h (2 Bft)
07.03.2021 08:41 1,5 C 79 % 1023,7 hPa 0,0 mm 1,0 km/h (0 Bft) SW 224 -1,7 C 4,8 km/h (1 Bft)
07.03.2021 08:40 1,4 C 79 % 1023,7 hPa 0,0 mm 0,0 km/h (0 Bft) W-SW 242 -1,8 C 0,0 km/h (0 Bft)
07.03.2021 08:39 1,5 C 79 % 1023,7 hPa 0,0 mm 0,5 km/h (0 Bft) W-SW 256 -1,7 C 2,4 km/h (1 Bft)
07.03.2021 08:38 1,4 C 79 % 1023,7 hPa 0,0 mm 0,3 km/h (0 Bft) SW 235 -1,8 C 2,4 km/h (1 Bft)
07.03.2021 08:37 1,4 C 79 % 1023,8 hPa 0,0 mm 0,4 km/h (0 Bft) SW 233 -1,8 C 2,4 km/h (1 Bft)
07.03.2021 08:36 1,4 C 79 % 1023,7 hPa 0,0 mm 1,2 km/h (1 Bft) SW 219 -1,8 C 4,8 km/h (1 Bft)
07.03.2021 08:35 1,4 C 79 % 1023,7 hPa 0,0 mm 0,4 km/h (0 Bft) SW 222 -1,8 C 2,4 km/h (1 Bft)
07.03.2021 08:34 1,4 C 79 % 1023,7 hPa 0,0 mm 0,2 km/h (0 Bft) W-SW 246 -1,8 C 2,4 km/h (1 Bft)
07.03.2021 08:33 1,4 C 79 % 1023,7 hPa 0,0 mm 1,1 km/h (1 Bft) O-SO 118 -1,8 C 2,4 km/h (1 Bft)
07.03.2021 08:32 1,4 C 79 % 1023,7 hPa 0,0 mm 2,1 km/h (1 Bft) W-SW 252 -1,8 C 7,2 km/h (2 Bft)
07.03.2021 08:31 1,4 C 79 % 1023,8 hPa 0,0 mm 1,9 km/h (1 Bft) S 186 -1,8 C 9,6 km/h (2 Bft)
07.03.2021 08:30 1,4 C 79 % 1023,8 hPa 0,0 mm 1,3 km/h (1 Bft) S-SW 193 -1,8 C 4,8 km/h (1 Bft)
07.03.2021 08:29 1,4 C 79 % 1023,7 hPa 0,0 mm 1,8 km/h (1 Bft) W-SW 239 -1,8 C 7,2 km/h (2 Bft)
07.03.2021 08:28 1,4 C 79 % 1023,7 hPa 0,0 mm 1,1 km/h (1 Bft) S-SW 208 -1,8 C 7,2 km/h (2 Bft)
07.03.2021 08:27 1,4 C 79 % 1023,8 hPa 0,0 mm 0,0 km/h (0 Bft) SW 235 -1,8 C 0,0 km/h (0 Bft)
07.03.2021 08:26 1,3 C 79 % 1023,7 hPa 0,0 mm 0,3 km/h (0 Bft) SW 224 -1,9 C 2,4 km/h (1 Bft)
07.03.2021 08:25 1,3 C 79 % 1023,7 hPa 0,0 mm 1,0 km/h (0 Bft) SW 231 -1,9 C 7,2 km/h (2 Bft)
07.03.2021 08:24 1,3 C 79 % 1023,7 hPa 0,0 mm 2,4 km/h (1 Bft) W-SW 243 -1,9 C 7,2 km/h (2 Bft)
07.03.2021 08:23 1,3 C 79 % 1023,7 hPa 0,0 mm 1,5 km/h (1 Bft) SW 236 -1,9 C 7,2 km/h (2 Bft)
07.03.2021 08:22 1,3 C 79 % 1023,7 hPa 0,0 mm 1,3 km/h (1 Bft) S-SW 211 -1,9 C 4,8 km/h (1 Bft)
07.03.2021 08:21 1,3 C 80 % 1023,7 hPa 0,0 mm 0,1 km/h (0 Bft) SW 235 -1,8 C 2,4 km/h (1 Bft)
07.03.2021 08:20 1,3 C 79 % 1023,7 hPa 0,0 mm 0,8 km/h (0 Bft) SW 216 -1,9 C 4,8 km/h (1 Bft)
07.03.2021 08:19 1,3 C 79 % 1023,7 hPa 0,0 mm 0,0 km/h (0 Bft) S-SW 203 -1,9 C 0,0 km/h (0 Bft)
07.03.2021 08:18 1,3 C 79 % 1023,7 hPa 0,0 mm 1,1 km/h (1 Bft) W-SW 252 -1,9 C 4,8 km/h (1 Bft)
07.03.2021 08:17 1,3 C 80 % 1023,7 hPa 0,0 mm 0,8 km/h (0 Bft) SO 139 -1,8 C 4,8 km/h (1 Bft)
07.03.2021 08:16 1,2 C 80 % 1023,8 hPa 0,0 mm 0,5 km/h (0 Bft) W-SW 252 -1,9 C 2,4 km/h (1 Bft)
07.03.2021 08:15 1,2 C 80 % 1023,7 hPa 0,0 mm 0,2 km/h (0 Bft) W 269 -1,9 C 2,4 km/h (1 Bft)
07.03.2021 08:14 1,2 C 80 % 1023,8 hPa 0,0 mm 0,0 km/h (0 Bft) S-SW 211 -1,9 C 0,0 km/h (0 Bft)
07.03.2021 08:13 1,2 C 80 % 1023,8 hPa 0,0 mm 0,6 km/h (0 Bft) W-SW 238 -1,9 C 2,4 km/h (1 Bft)
07.03.2021 08:12 1,2 C 80 % 1023,8 hPa 0,0 mm 0,0 km/h (0 Bft) SW 231 -1,9 C 0,0 km/h (0 Bft)
07.03.2021 08:11 1,2 C 80 % 1023,8 hPa 0,0 mm 0,7 km/h (0 Bft) S-SW 212 -1,9 C 4,8 km/h (1 Bft)
07.03.2021 08:10 1,2 C 80 % 1023,8 hPa 0,0 mm 0,5 km/h (0 Bft) W 260 -1,9 C 2,4 km/h (1 Bft)
07.03.2021 08:09 1,2 C 80 % 1023,8 hPa 0,0 mm 0,2 km/h (0 Bft) SW 219 -1,9 C 2,4 km/h (1 Bft)
07.03.2021 08:08 1,2 C 80 % 1023,8 hPa 0,0 mm 0,3 km/h (0 Bft) SW 214 -1,9 C 2,4 km/h (1 Bft)
07.03.2021 08:07 1,2 C 80 % 1023,8 hPa 0,0 mm 0,2 km/h (0 Bft) SW 233 -1,9 C 2,4 km/h (1 Bft)
07.03.2021 08:06 1,2 C 80 % 1023,8 hPa 0,0 mm 1,0 km/h (0 Bft) SW 236 -1,9 C 4,8 km/h (1 Bft)
07.03.2021 08:05 1,1 C 80 % 1023,8 hPa 0,0 mm 1,1 km/h (1 Bft) SW 225 -2,0 C 4,8 km/h (1 Bft)
07.03.2021 08:04 1,1 C 79 % 1023,7 hPa 0,0 mm 0,0 km/h (0 Bft) SW 231 -2,1 C 0,0 km/h (0 Bft)
07.03.2021 08:03 1,1 C 79 % 1023,7 hPa 0,0 mm 0,3 km/h (0 Bft) S-SW 200 -2,1 C 2,4 km/h (1 Bft)
07.03.2021 08:02 1,1 C 79 % 1023,8 hPa 0,0 mm 0,1 km/h (0 Bft) SW 228 -2,1 C 2,4 km/h (1 Bft)
07.03.2021 08:00 1,1 C 79 % 1023,7 hPa 0,0 mm 0,5 km/h (0 Bft) W-SW 240 -2,1 C 2,4 km/h (1 Bft)
07.03.2021 07:59 1,1 C 79 % 1023,8 hPa 0,0 mm 0,3 km/h (0 Bft) SW 222 -2,1 C 2,4 km/h (1 Bft)
07.03.2021 07:58 1,1 C 79 % 1023,9 hPa 0,0 mm 0,1 km/h (0 Bft) SW 226 -2,1 C 2,4 km/h (1 Bft)
07.03.2021 07:57 1,1 C 79 % 1023,8 hPa 0,0 mm 0,1 km/h (0 Bft) W-SW 243 -2,1 C 2,4 km/h (1 Bft)
07.03.2021 07:56 1,1 C 79 % 1023,8 hPa 0,0 mm 1,2 km/h (1 Bft) SW 214 -2,1 C 4,8 km/h (1 Bft)
07.03.2021 07:55 1,1 C 79 % 1023,8 hPa 0,0 mm 0,1 km/h (0 Bft) SW 225 -2,1 C 2,4 km/h (1 Bft)
07.03.2021 07:54 1,1 C 79 % 1023,8 hPa 0,0 mm 0,4 km/h (0 Bft) SW 224 -2,1 C 2,4 km/h (1 Bft)
07.03.2021 07:53 1,1 C 79 % 1023,8 hPa 0,0 mm 2,5 km/h (1 Bft) S-SW 210 -2,1 C 7,2 km/h (2 Bft)
07.03.2021 07:52 1,1 C 79 % 1023,8 hPa 0,0 mm 0,2 km/h (0 Bft) SW 222 -2,1 C 2,4 km/h (1 Bft)
07.03.2021 07:51 1,1 C 79 % 1023,7 hPa 0,0 mm 1,8 km/h (1 Bft) SW 226 -2,1 C 4,8 km/h (1 Bft)
07.03.2021 07:50 1,1 C 79 % 1023,8 hPa 0,0 mm 0,0 km/h (0 Bft) SW 235 -2,1 C 0,0 km/h (0 Bft)
07.03.2021 07:49 1,1 C 79 % 1023,7 hPa 0,0 mm 0,4 km/h (0 Bft) SW 235 -2,1 C 2,4 km/h (1 Bft)
07.03.2021 07:48 1,1 C 79 % 1023,7 hPa 0,0 mm 1,8 km/h (1 Bft) SW 215 -2,1 C 4,8 km/h (1 Bft)
07.03.2021 07:47 1,1 C 79 % 1023,8 hPa 0,0 mm 0,2 km/h (0 Bft) SO 128 -2,1 C 2,4 km/h (1 Bft)
07.03.2021 07:46 1,1 C 79 % 1023,8 hPa 0,0 mm 0,3 km/h (0 Bft) S-SW 200 -2,1 C 2,4 km/h (1 Bft)
07.03.2021 07:45 1,1 C 79 % 1023,7 hPa 0,0 mm 0,6 km/h (0 Bft) S-SW 203 -2,1 C 2,4 km/h (1 Bft)
07.03.2021 07:44 1,1 C 79 % 1023,7 hPa 0,0 mm 0,0 km/h (0 Bft) W-SW 246 -2,1 C 0,0 km/h (0 Bft)
07.03.2021 07:43 1,1 C 79 % 1023,7 hPa 0,0 mm 0,4 km/h (0 Bft) W-SW 248 -2,1 C 2,4 km/h (1 Bft)
07.03.2021 07:42 1,1 C 79 % 1023,8 hPa 0,0 mm 0,1 km/h (0 Bft) S-SW 203 -2,1 C 2,4 km/h (1 Bft)
07.03.2021 07:41 1,1 C 79 % 1023,8 hPa 0,0 mm 0,0 km/h (0 Bft) SW 221 -2,1 C 0,0 km/h (0 Bft)
07.03.2021 07:40 1,1 C 79 % 1023,8 hPa 0,0 mm 0,1 km/h (0 Bft) SW 219 -2,1 C 2,4 km/h (1 Bft)
07.03.2021 07:39 1,1 C 79 % 1023,8 hPa 0,0 mm 0,1 km/h (0 Bft) SW 225 -2,1 C 2,4 km/h (1 Bft)
07.03.2021 07:38 1,1 C 79 % 1023,8 hPa 0,0 mm 0,0 km/h (0 Bft) SW 215 -2,1 C 0,0 km/h (0 Bft)
07.03.2021 07:37 1,0 C 79 % 1023,8 hPa 0,0 mm 0,0 km/h (0 Bft) W 266 -2,2 C 0,0 km/h (0 Bft)
07.03.2021 07:36 1,0 C 80 % 1023,8 hPa 0,0 mm 0,3 km/h (0 Bft) S-SW 201 -2,1 C 2,4 km/h (1 Bft)
07.03.2021 07:35 1,0 C 79 % 1023,8 hPa 0,0 mm 0,0 km/h (0 Bft) S 179 -2,2 C 0,0 km/h (0 Bft)
07.03.2021 07:34 1,0 C 79 % 1023,8 hPa 0,0 mm 0,0 km/h (0 Bft) S 177 -2,2 C 0,0 km/h (0 Bft)
07.03.2021 07:33 1,0 C 80 % 1023,7 hPa 0,0 mm 0,0 km/h (0 Bft) S 177 -2,1 C 0,0 km/h (0 Bft)
07.03.2021 07:32 1,0 C 80 % 1023,7 hPa 0,0 mm 0,0 km/h (0 Bft) W-SW 238 -2,1 C 0,0 km/h (0 Bft)
07.03.2021 07:31 0,9 C 80 % 1023,7 hPa 0,0 mm 0,0 km/h (0 Bft) W-SW 238 -2,2 C 0,0 km/h (0 Bft)
07.03.2021 07:30 0,9 C 80 % 1023,7 hPa 0,0 mm 0,0 km/h (0 Bft) SW 222 -2,2 C 0,0 km/h (0 Bft)
07.03.2021 07:29 0,9 C 80 % 1023,8 hPa 0,0 mm 0,0 km/h (0 Bft) SW 222 -2,2 C 0,0 km/h (0 Bft)
07.03.2021 07:28 1,0 C 79 % 1023,8 hPa 0,0 mm 0,2 km/h (0 Bft) S-SO 167 -2,2 C 2,4 km/h (1 Bft)
07.03.2021 07:27 1,0 C 79 % 1023,8 hPa 0,0 mm 0,0 km/h (0 Bft) W-SW 239 -2,2 C 0,0 km/h (0 Bft)
07.03.2021 07:26 1,0 C 79 % 1023,8 hPa 0,0 mm 0,4 km/h (0 Bft) S 180 -2,2 C 2,4 km/h (1 Bft)
07.03.2021 07:25 1,0 C 79 % 1023,8 hPa 0,0 mm 0,6 km/h (0 Bft) SW 227 -2,2 C 2,4 km/h (1 Bft)
07.03.2021 07:24 1,0 C 79 % 1023,8 hPa 0,0 mm 0,2 km/h (0 Bft) S-SO 149 -2,2 C 2,4 km/h (1 Bft)
07.03.2021 07:23 1,0 C 79 % 1023,8 hPa 0,0 mm 0,1 km/h (0 Bft) S-SW 210 -2,2 C 2,4 km/h (1 Bft)
07.03.2021 07:22 1,0 C 79 % 1023,8 hPa 0,0 mm 0,5 km/h (0 Bft) SW 225 -2,2 C 2,4 km/h (1 Bft)
07.03.2021 07:21 1,0 C 79 % 1023,8 hPa 0,0 mm 1,6 km/h (1 Bft) W-SW 243 -2,2 C 4,8 km/h (1 Bft)
07.03.2021 07:20 1,0 C 79 % 1023,8 hPa 0,0 mm 1,3 km/h (1 Bft) W-SW 242 -2,2 C 7,2 km/h (2 Bft)
07.03.2021 07:19 1,0 C 79 % 1023,7 hPa 0,0 mm 1,0 km/h (0 Bft) W-SW 239 -2,2 C 7,2 km/h (2 Bft)
07.03.2021 07:18 0,9 C 79 % 1023,7 hPa 0,0 mm 0,5 km/h (0 Bft) SW 232 -2,3 C 4,8 km/h (1 Bft)
07.03.2021 07:17 0,9 C 79 % 1023,7 hPa 0,0 mm 0,1 km/h (0 Bft) W-SW 253 -2,3 C 2,4 km/h (1 Bft)
07.03.2021 07:16 0,9 C 79 % 1023,7 hPa 0,0 mm 0,0 km/h (0 Bft) SW 227 -2,3 C 0,0 km/h (0 Bft)
07.03.2021 07:15 0,9 C 79 % 1023,7 hPa 0,0 mm 1,2 km/h (1 Bft) W-SW 243 -2,3 C 4,8 km/h (1 Bft)
07.03.2021 07:14 0,9 C 79 % 1023,7 hPa 0,0 mm 1,7 km/h (1 Bft) W 274 -2,3 C 7,2 km/h (2 Bft)
07.03.2021 07:13 0,9 C 79 % 1023,7 hPa 0,0 mm 1,0 km/h (0 Bft) W 260 -2,3 C 2,4 km/h (1 Bft)
07.03.2021 07:12 0,9 C 79 % 1023,7 hPa 0,0 mm 0,7 km/h (0 Bft) W-SW 248 -2,3 C 4,8 km/h (1 Bft)
07.03.2021 07:11 0,9 C 79 % 1023,7 hPa 0,0 mm 0,1 km/h (0 Bft) S-SW 205 -2,3 C 2,4 km/h (1 Bft)
07.03.2021 07:10 0,9 C 80 % 1023,8 hPa 0,0 mm 0,5 km/h (0 Bft) W-SW 248 -2,2 C 2,4 km/h (1 Bft)
07.03.2021 07:09 0,9 C 80 % 1023,8 hPa 0,0 mm 0,6 km/h (0 Bft) W-SW 238 -2,2 C 4,8 km/h (1 Bft)
07.03.2021 07:08 0,9 C 80 % 1023,8 hPa 0,0 mm 0,3 km/h (0 Bft) W-SW 243 -2,2 C 4,8 km/h (1 Bft)
07.03.2021 07:07 0,9 C 80 % 1023,8 hPa 0,0 mm 0,1 km/h (0 Bft) W-SW 247 -2,2 C 2,4 km/h (1 Bft)
07.03.2021 07:06 0,9 C 80 % 1023,8 hPa 0,0 mm 0,0 km/h (0 Bft) SW 217 -2,2 C 0,0 km/h (0 Bft)
07.03.2021 07:05 0,9 C 80 % 1023,8 hPa 0,0 mm 0,0 km/h (0 Bft) S-SW 195 -2,2 C 0,0 km/h (0 Bft)
07.03.2021 07:04 0,9 C 80 % 1023,8 hPa 0,0 mm 0,2 km/h (0 Bft) W 260 -2,2 C 2,4 km/h (1 Bft)
07.03.2021 07:03 0,9 C 80 % 1023,7 hPa 0,0 mm 0,0 km/h (0 Bft) S-SW 195 -2,2 C 0,0 km/h (0 Bft)
07.03.2021 07:02 0,9 C 80 % 1023,8 hPa 0,0 mm 0,0 km/h (0 Bft) W-SW 238 -2,2 C 0,0 km/h (0 Bft)
07.03.2021 07:00 1,0 C 80 % 1023,8 hPa 0,0 mm 0,0 km/h (0 Bft) W-SW 239 -2,1 C 0,0 km/h (0 Bft)
07.03.2021 06:59 1,0 C 80 % 1023,7 hPa 0,0 mm 0,0 km/h (0 Bft) SW 227 -2,1 C 0,0 km/h (0 Bft)
07.03.2021 06:58 1,0 C 79 % 1023,7 hPa 0,0 mm 0,0 km/h (0 Bft) W-SW 257 -2,2 C 0,0 km/h (0 Bft)
07.03.2021 06:57 1,0 C 79 % 1023,8 hPa 0,0 mm 0,2 km/h (0 Bft) SW 221 -2,2 C 2,4 km/h (1 Bft)
07.03.2021 06:56 1,0 C 80 % 1023,7 hPa 0,0 mm 2,4 km/h (1 Bft) S-SO 165 -2,1 C 7,2 km/h (2 Bft)
07.03.2021 06:55 1,0 C 80 % 1023,7 hPa 0,0 mm 2,6 km/h (1 Bft) W-SW 246 -2,1 C 7,2 km/h (2 Bft)
07.03.2021 06:54 1,0 C 80 % 1023,8 hPa 0,0 mm 0,5 km/h (0 Bft) SW 221 -2,1 C 2,4 km/h (1 Bft)
07.03.2021 06:53 1,0 C 80 % 1023,7 hPa 0,0 mm 0,1 km/h (0 Bft) SW 231 -2,1 C 2,4 km/h (1 Bft)
07.03.2021 06:52 1,0 C 79 % 1023,7 hPa 0,0 mm 2,0 km/h (1 Bft) W-SW 242 -2,2 C 9,6 km/h (2 Bft)
07.03.2021 06:51 1,1 C 79 % 1023,8 hPa 0,0 mm 0,5 km/h (0 Bft) S-SW 203 -2,1 C 2,4 km/h (1 Bft)
07.03.2021 06:50 1,1 C 79 % 1023,8 hPa 0,0 mm 0,4 km/h (0 Bft) W-NW 283 -2,1 C 2,4 km/h (1 Bft)
07.03.2021 06:49 1,0 C 79 % 1023,8 hPa 0,0 mm 1,6 km/h (1 Bft) S-SO 160 -2,2 C 4,8 km/h (1 Bft)
07.03.2021 06:48 1,0 C 79 % 1023,8 hPa 0,0 mm 0,7 km/h (0 Bft) NO 41 -2,2 C 2,4 km/h (1 Bft)
07.03.2021 06:47 1,0 C 79 % 1023,7 hPa 0,0 mm 2,2 km/h (1 Bft) W 274 -2,2 C 9,6 km/h (2 Bft)
07.03.2021 06:46 1,1 C 79 % 1023,8 hPa 0,0 mm 0,2 km/h (0 Bft) W 277 -2,1 C 2,4 km/h (1 Bft)
07.03.2021 06:45 1,1 C 80 % 1023,8 hPa 0,0 mm 0,5 km/h (0 Bft) SW 216 -2,0 C 4,8 km/h (1 Bft)
07.03.2021 06:44 1,1 C 80 % 1023,7 hPa 0,0 mm 1,4 km/h (1 Bft) O-SO 113 -2,0 C 4,8 km/h (1 Bft)
07.03.2021 06:43 1,1 C 80 % 1023,8 hPa 0,0 mm 0,2 km/h (0 Bft) O-NO 71 -2,0 C 2,4 km/h (1 Bft)
07.03.2021 06:42 1,1 C 80 % 1023,8 hPa 0,0 mm 1,1 km/h (1 Bft) W-NW 284 -2,0 C 4,8 km/h (1 Bft)
07.03.2021 06:41 1,1 C 80 % 1023,8 hPa 0,0 mm 2,5 km/h (1 Bft) O-NO 65 -2,0 C 9,6 km/h (2 Bft)
07.03.2021 06:40 1,1 C 80 % 1023,8 hPa 0,0 mm 1,4 km/h (1 Bft) S-SW 197 -2,0 C 4,8 km/h (1 Bft)
07.03.2021 06:39 1,1 C 80 % 1023,8 hPa 0,0 mm 1,1 km/h (1 Bft) S-SO 156 -2,0 C 4,8 km/h (1 Bft)
07.03.2021 06:38 1,1 C 80 % 1023,9 hPa 0,0 mm 0,6 km/h (0 Bft) W-SW 243 -2,0 C 4,8 km/h (1 Bft)
07.03.2021 06:37 1,1 C 80 % 1023,9 hPa 0,0 mm 0,5 km/h (0 Bft) W-SW 253 -2,0 C 2,4 km/h (1 Bft)
07.03.2021 06:36 1,1 C 80 % 1023,9 hPa 0,0 mm 0,2 km/h (0 Bft) O-SO 115 -2,0 C 2,4 km/h (1 Bft)
07.03.2021 06:35 1,1 C 80 % 1023,9 hPa 0,0 mm 2,2 km/h (1 Bft) SO 145 -2,0 C 7,2 km/h (2 Bft)
07.03.2021 06:34 1,1 C 80 % 1023,9 hPa 0,0 mm 2,3 km/h (1 Bft) SO 133 -2,0 C 9,6 km/h (2 Bft)
07.03.2021 06:33 1,1 C 80 % 1023,9 hPa 0,0 mm 0,1 km/h (0 Bft) W-SW 239 -2,0 C 2,4 km/h (1 Bft)
07.03.2021 06:32 1,1 C 80 % 1023,9 hPa 0,0 mm 0,1 km/h (0 Bft) SW 219 -2,0 C 2,4 km/h (1 Bft)
07.03.2021 06:31 1,1 C 80 % 1023,9 hPa 0,0 mm 0,7 km/h (0 Bft) S-SO 165 -2,0 C 4,8 km/h (1 Bft)
07.03.2021 06:30 1,1 C 80 % 1024,0 hPa 0,0 mm 2,1 km/h (1 Bft) S 170 -2,0 C 9,6 km/h (2 Bft)
07.03.2021 06:29 1,2 C 80 % 1023,9 hPa 0,0 mm 1,0 km/h (0 Bft) W 275 -1,9 C 4,8 km/h (1 Bft)
07.03.2021 06:28 1,1 C 80 % 1023,9 hPa 0,0 mm 0,3 km/h (0 Bft) S 179 -2,0 C 2,4 km/h (1 Bft)
07.03.2021 06:27 1,2 C 80 % 1023,9 hPa 0,0 mm 1,3 km/h (1 Bft) S-SW 210 -1,9 C 4,8 km/h (1 Bft)
07.03.2021 06:26 1,2 C 80 % 1024,0 hPa 0,0 mm 1,7 km/h (1 Bft) SO 139 -1,9 C 12,0 km/h (2 Bft)
07.03.2021 06:25 1,2 C 80 % 1024,0 hPa 0,0 mm 0,2 km/h (0 Bft) W-SW 242 -1,9 C 2,4 km/h (1 Bft)
07.03.2021 06:24 1,2 C 80 % 1024,0 hPa 0,0 mm 0,1 km/h (0 Bft) SW 235 -1,9 C 2,4 km/h (1 Bft)
07.03.2021 06:23 1,2 C 80 % 1024,0 hPa 0,0 mm 0,2 km/h (0 Bft) S-SW 211 -1,9 C 2,4 km/h (1 Bft)
07.03.2021 06:22 1,2 C 80 % 1024,0 hPa 0,0 mm 1,7 km/h (1 Bft) S 191 -1,9 C 7,2 km/h (2 Bft)
07.03.2021 06:21 1,2 C 80 % 1024,0 hPa 0,0 mm 1,1 km/h (1 Bft) SW 228 -1,9 C 7,2 km/h (2 Bft)
07.03.2021 06:20 1,2 C 80 % 1024,0 hPa 0,0 mm 0,3 km/h (0 Bft) SW 233 -1,9 C 2,4 km/h (1 Bft)
07.03.2021 06:19 1,2 C 80 % 1024,0 hPa 0,0 mm 0,2 km/h (0 Bft) SW 221 -1,9 C 2,4 km/h (1 Bft)
07.03.2021 06:18 1,2 C 80 % 1024,0 hPa 0,0 mm 0,2 km/h (0 Bft) SW 232 -1,9 C 2,4 km/h (1 Bft)
07.03.2021 06:17 1,2 C 80 % 1024,0 hPa 0,0 mm 1,9 km/h (1 Bft) W-SW 257 -1,9 C 4,8 km/h (1 Bft)
07.03.2021 06:16 1,2 C 80 % 1024,1 hPa 0,0 mm 1,1 km/h (1 Bft) SW 229 -1,9 C 4,8 km/h (1 Bft)
07.03.2021 06:15 1,2 C 80 % 1024,1 hPa 0,0 mm 2,1 km/h (1 Bft) SW 226 -1,9 C 7,2 km/h (2 Bft)
07.03.2021 06:14 1,3 C 80 % 1024,0 hPa 0,0 mm 0,7 km/h (0 Bft) W-SW 239 -1,8 C 2,4 km/h (1 Bft)
07.03.2021 06:13 1,3 C 80 % 1024,1 hPa 0,0 mm 1,3 km/h (1 Bft) SW 215 -1,8 C 4,8 km/h (1 Bft)
07.03.2021 06:12 1,3 C 80 % 1024,1 hPa 0,0 mm 0,7 km/h (0 Bft) W-SW 242 -1,8 C 2,4 km/h (1 Bft)
07.03.2021 06:11 1,3 C 80 % 1024,1 hPa 0,0 mm 0,2 km/h (0 Bft) W-SW 249 -1,8 C 2,4 km/h (1 Bft)
07.03.2021 06:10 1,3 C 80 % 1024,1 hPa 0,0 mm 0,2 km/h (0 Bft) W-SW 253 -1,8 C 2,4 km/h (1 Bft)
07.03.2021 06:09 1,3 C 80 % 1024,1 hPa 0,0 mm 1,5 km/h (1 Bft) S 181 -1,8 C 4,8 km/h (1 Bft)
07.03.2021 06:08 1,3 C 80 % 1024,1 hPa 0,0 mm 0,0 km/h (0 Bft) W 271 -1,8 C 0,0 km/h (0 Bft)
07.03.2021 06:07 1,3 C 80 % 1024,1 hPa 0,0 mm 0,5 km/h (0 Bft) W-SW 246 -1,8 C 2,4 km/h (1 Bft)
07.03.2021 06:06 1,3 C 80 % 1024,1 hPa 0,0 mm 1,2 km/h (1 Bft) W 263 -1,8 C 7,2 km/h (2 Bft)
07.03.2021 06:05 1,3 C 80 % 1024,1 hPa 0,0 mm 0,8 km/h (0 Bft) W-SW 243 -1,8 C 2,4 km/h (1 Bft)
07.03.2021 06:04 1,3 C 80 % 1024,1 hPa 0,0 mm 1,6 km/h (1 Bft) SW 233 -1,8 C 4,8 km/h (1 Bft)
07.03.2021 06:03 1,3 C 80 % 1024,1 hPa 0,0 mm 1,7 km/h (1 Bft) O-SO 122 -1,8 C 4,8 km/h (1 Bft)
07.03.2021 06:02 1,3 C 80 % 1024,1 hPa 0,0 mm 0,9 km/h (0 Bft) W-SW 243 -1,8 C 4,8 km/h (1 Bft)
07.03.2021 06:00 1,3 C 80 % 1024,1 hPa 0,0 mm 0,1 km/h (0 Bft) W 277 -1,8 C 2,4 km/h (1 Bft)
07.03.2021 05:59 1,3 C 80 % 1024,1 hPa 0,0 mm 1,0 km/h (0 Bft) SO 138 -1,8 C 2,4 km/h (1 Bft)
07.03.2021 05:56 1,3 C 79 % 1024,1 hPa 0,0 mm 0,0 km/h (0 Bft) S-SW 202 -1,9 C 4,8 km/h (1 Bft)
07.03.2021 05:55 1,3 C 79 % 1024,1 hPa 0,0 mm 1,5 km/h (1 Bft) S-SW 211 -1,9 C 7,2 km/h (2 Bft)
07.03.2021 05:54 1,4 C 79 % 1024,1 hPa 0,0 mm 3,0 km/h (1 Bft) S-SO 164 -1,8 C 14,4 km/h (3 Bft)
07.03.2021 05:53 1,3 C 80 % 1024,1 hPa 0,0 mm 1,4 km/h (1 Bft) SW 221 -1,8 C 7,2 km/h (2 Bft)
07.03.2021 05:52 1,4 C 80 % 1024,1 hPa 0,0 mm 2,4 km/h (1 Bft) S-SO 158 -1,7 C 9,6 km/h (2 Bft)
07.03.2021 05:51 1,4 C 80 % 1024,2 hPa 0,0 mm 2,7 km/h (1 Bft) S-SO 160 -1,7 C 9,6 km/h (2 Bft)
07.03.2021 05:50 1,4 C 80 % 1024,2 hPa 0,0 mm 0,7 km/h (0 Bft) SW 222 -1,7 C 7,2 km/h (2 Bft)
07.03.2021 05:49 1,4 C 80 % 1024,2 hPa 0,0 mm 3,0 km/h (1 Bft) O-SO 120 -1,7 C 12,0 km/h (2 Bft)
07.03.2021 05:48 1,4 C 80 % 1024,2 hPa 0,0 mm 3,9 km/h (1 Bft) O-NO 68 -1,7 C 9,6 km/h (2 Bft)
07.03.2021 05:47 1,4 C 80 % 1024,2 hPa 0,0 mm 0,2 km/h (0 Bft) W-SW 255 -1,7 C 2,4 km/h (1 Bft)
07.03.2021 05:46 1,4 C 80 % 1024,2 hPa 0,0 mm 2,0 km/h (1 Bft) O-SO 106 -1,7 C 7,2 km/h (2 Bft)
07.03.2021 05:45 1,4 C 80 % 1024,2 hPa 0,0 mm 0,1 km/h (0 Bft) W-SW 249 -1,7 C 2,4 km/h (1 Bft)
07.03.2021 05:44 1,4 C 80 % 1024,2 hPa 0,0 mm 1,8 km/h (1 Bft) W-NW 283 -1,7 C 4,8 km/h (1 Bft)
07.03.2021 05:43 1,4 C 79 % 1024,3 hPa 0,0 mm 1,6 km/h (1 Bft) W-SW 246 -1,8 C 7,2 km/h (2 Bft)
07.03.2021 05:42 1,4 C 79 % 1024,2 hPa 0,0 mm 4,3 km/h (1 Bft) SW 221 -1,8 C 12,0 km/h (2 Bft)
07.03.2021 05:41 1,4 C 79 % 1024,3 hPa 0,0 mm 0,8 km/h (0 Bft) S 187 -1,8 C 4,8 km/h (1 Bft)
07.03.2021 05:40 1,4 C 79 % 1024,3 hPa 0,0 mm 3,6 km/h (1 Bft) W-SW 253 -1,8 C 12,0 km/h (2 Bft)
07.03.2021 05:39 1,4 C 79 % 1024,2 hPa 0,0 mm 2,0 km/h (1 Bft) SW 228 -1,8 C 9,6 km/h (2 Bft)
07.03.2021 05:38 1,4 C 79 % 1024,3 hPa 0,0 mm 1,4 km/h (1 Bft) W 260 -1,8 C 7,2 km/h (2 Bft)
07.03.2021 05:37 1,5 C 79 % 1024,3 hPa 0,0 mm 1,0 km/h (0 Bft) W 271 -1,7 C 4,8 km/h (1 Bft)
07.03.2021 05:36 1,5 C 79 % 1024,3 hPa 0,0 mm 1,5 km/h (1 Bft) W 271 -1,7 C 7,2 km/h (2 Bft)
07.03.2021 05:35 1,5 C 79 % 1024,3 hPa 0,0 mm 0,1 km/h (0 Bft) SW 233 -1,7 C 2,4 km/h (1 Bft)
07.03.2021 05:34 1,5 C 79 % 1024,3 hPa 0,0 mm 3,2 km/h (1 Bft) W-SW 252 -1,7 C 7,2 km/h (2 Bft)
07.03.2021 05:33 1,5 C 79 % 1024,3 hPa 0,0 mm 1,9 km/h (1 Bft) S 186 -1,7 C 7,2 km/h (2 Bft)
07.03.2021 05:32 1,5 C 79 % 1024,4 hPa 0,0 mm 1,4 km/h (1 Bft) SO 145 -1,7 C 7,2 km/h (2 Bft)
07.03.2021 05:31 1,5 C 79 % 1024,3 hPa 0,0 mm 0,4 km/h (0 Bft) SW 229 -1,7 C 2,4 km/h (1 Bft)
07.03.2021 05:30 1,5 C 79 % 1024,3 hPa 0,0 mm 1,6 km/h (1 Bft) SW 233 -1,7 C 7,2 km/h (2 Bft)
07.03.2021 05:29 1,5 C 79 % 1024,3 hPa 0,0 mm 2,9 km/h (1 Bft) S-SW 201 -1,7 C 12,0 km/h (2 Bft)
07.03.2021 05:28 1,5 C 79 % 1024,4 hPa 0,0 mm 2,5 km/h (1 Bft) O-SO 113 -1,7 C 12,0 km/h (2 Bft)
07.03.2021 05:27 1,5 C 80 % 1024,3 hPa 0,0 mm 1,1 km/h (1 Bft) SW 224 -1,6 C 12,0 km/h (2 Bft)
07.03.2021 05:26 1,5 C 80 % 1024,4 hPa 0,0 mm 2,6 km/h (1 Bft) SW 222 -1,6 C 9,6 km/h (2 Bft)
07.03.2021 05:25 1,5 C 80 % 1024,4 hPa 0,0 mm 2,0 km/h (1 Bft) SO 143 -1,6 C 7,2 km/h (2 Bft)
07.03.2021 05:24 1,5 C 80 % 1024,4 hPa 0,0 mm 0,3 km/h (0 Bft) W-SW 243 -1,6 C 2,4 km/h (1 Bft)
07.03.2021 05:23 1,5 C 80 % 1024,4 hPa 0,0 mm 2,0 km/h (1 Bft) SO 146 -1,6 C 9,6 km/h (2 Bft)
07.03.2021 05:22 1,6 C 80 % 1024,4 hPa 0,0 mm 1,7 km/h (1 Bft) S 170 -1,5 C 7,2 km/h (2 Bft)
07.03.2021 05:21 1,6 C 80 % 1024,4 hPa 0,0 mm 1,6 km/h (1 Bft) SO 145 -1,5 C 7,2 km/h (2 Bft)
07.03.2021 05:20 1,6 C 79 % 1024,4 hPa 0,0 mm 1,1 km/h (1 Bft) S-SO 167 -1,6 C 4,8 km/h (1 Bft)
07.03.2021 05:19 1,6 C 80 % 1024,4 hPa 0,0 mm 5,1 km/h (1 Bft) S 174 -1,5 C 14,4 km/h (3 Bft)
07.03.2021 05:18 1,6 C 80 % 1024,4 hPa 0,0 mm 2,0 km/h (1 Bft) O-SO 119 -1,5 C 7,2 km/h (2 Bft)
07.03.2021 05:17 1,6 C 80 % 1024,4 hPa 0,0 mm 1,3 km/h (1 Bft) W 266 -1,5 C 4,8 km/h (1 Bft)
07.03.2021 05:16 1,6 C 80 % 1024,4 hPa 0,0 mm 1,5 km/h (1 Bft) W-SW 258 -1,5 C 4,8 km/h (1 Bft)
07.03.2021 05:15 1,6 C 80 % 1024,4 hPa 0,0 mm 1,9 km/h (1 Bft) S 190 -1,5 C 9,6 km/h (2 Bft)
07.03.2021 05:14 1,6 C 80 % 1024,4 hPa 0,0 mm 2,4 km/h (1 Bft) W-NW 301 -1,5 C 7,2 km/h (2 Bft)
07.03.2021 05:13 1,6 C 80 % 1024,4 hPa 0,0 mm 0,9 km/h (0 Bft) SW 225 -1,5 C 4,8 km/h (1 Bft)
07.03.2021 05:12 1,6 C 80 % 1024,4 hPa 0,0 mm 0,2 km/h (0 Bft) W 259 -1,5 C 2,4 km/h (1 Bft)
07.03.2021 05:11 1,6 C 80 % 1024,4 hPa 0,0 mm 0,5 km/h (0 Bft) W-SW 246 -1,5 C 2,4 km/h (1 Bft)
07.03.2021 05:10 1,6 C 80 % 1024,5 hPa 0,0 mm 1,1 km/h (1 Bft) W 271 -1,5 C 4,8 km/h (1 Bft)
07.03.2021 05:09 1,6 C 80 % 1024,4 hPa 0,0 mm 0,2 km/h (0 Bft) S 175 -1,5 C 2,4 km/h (1 Bft)
07.03.2021 05:08 1,6 C 80 % 1024,4 hPa 0,0 mm 1,3 km/h (1 Bft) SW 228 -1,5 C 7,2 km/h (2 Bft)
07.03.2021 05:07 1,6 C 80 % 1024,5 hPa 0,0 mm 2,0 km/h (1 Bft) W-SW 257 -1,5 C 7,2 km/h (2 Bft)
07.03.2021 05:06 1,6 C 80 % 1024,5 hPa 0,0 mm 2,4 km/h (1 Bft) S-SW 210 -1,5 C 12,0 km/h (2 Bft)
07.03.2021 05:05 1,6 C 80 % 1024,5 hPa 0,0 mm 1,5 km/h (1 Bft) S-SO 163 -1,5 C 7,2 km/h (2 Bft)
07.03.2021 05:04 1,6 C 80 % 1024,5 hPa 0,0 mm 2,5 km/h (1 Bft) S-SO 167 -1,5 C 7,2 km/h (2 Bft)
07.03.2021 05:03 1,6 C 80 % 1024,5 hPa 0,0 mm 0,6 km/h (0 Bft) W-SW 246 -1,5 C 4,8 km/h (1 Bft)
07.03.2021 05:02 1,6 C 80 % 1024,5 hPa 0,0 mm 1,8 km/h (1 Bft) O-SO 110 -1,5 C 7,2 km/h (2 Bft)
07.03.2021 05:00 1,7 C 80 % 1024,6 hPa 0,0 mm 0,2 km/h (0 Bft) W-NW 298 -1,4 C 2,4 km/h (1 Bft)
07.03.2021 04:59 1,7 C 80 % 1024,6 hPa 0,0 mm 1,0 km/h (0 Bft) S-SW 195 -1,4 C 2,4 km/h (1 Bft)
07.03.2021 04:58 1,7 C 80 % 1024,6 hPa 0,0 mm 0,8 km/h (0 Bft) W-NW 291 -1,4 C 7,2 km/h (2 Bft)
07.03.2021 04:57 1,7 C 80 % 1024,6 hPa 0,0 mm 2,5 km/h (1 Bft) S-SO 163 -1,4 C 9,6 km/h (2 Bft)
07.03.2021 04:56 1,7 C 80 % 1024,6 hPa 0,0 mm 3,8 km/h (1 Bft) S-SW 198 -1,4 C 12,0 km/h (2 Bft)
07.03.2021 04:55 1,6 C 80 % 1024,6 hPa 0,0 mm 4,4 km/h (1 Bft) S-SW 195 -1,5 C 14,4 km/h (3 Bft)
07.03.2021 04:54 1,7 C 80 % 1024,6 hPa 0,0 mm 1,1 km/h (1 Bft) W 278 -1,4 C 4,8 km/h (1 Bft)
07.03.2021 04:53 1,7 C 80 % 1024,6 hPa 0,0 mm 1,8 km/h (1 Bft) SO 146 -1,4 C 9,6 km/h (2 Bft)
07.03.2021 04:52 1,7 C 80 % 1024,7 hPa 0,0 mm 0,5 km/h (0 Bft) S-SW 208 -1,4 C 2,4 km/h (1 Bft)
07.03.2021 04:51 1,7 C 80 % 1024,6 hPa 0,0 mm 2,1 km/h (1 Bft) O-SO 114 -1,4 C 4,8 km/h (1 Bft)
07.03.2021 04:50 1,7 C 80 % 1024,6 hPa 0,0 mm 1,2 km/h (1 Bft) O 80 -1,4 C 9,6 km/h (2 Bft)
07.03.2021 04:49 1,7 C 80 % 1024,6 hPa 0,0 mm 0,2 km/h (0 Bft) SO 129 -1,4 C 2,4 km/h (1 Bft)
07.03.2021 04:48 1,7 C 80 % 1024,6 hPa 0,0 mm 3,8 km/h (1 Bft) S 169 -1,4 C 9,6 km/h (2 Bft)
07.03.2021 04:47 1,7 C 80 % 1024,6 hPa 0,0 mm 0,9 km/h (0 Bft) S 179 -1,4 C 4,8 km/h (1 Bft)
07.03.2021 04:46 1,7 C 80 % 1024,6 hPa 0,0 mm 3,6 km/h (1 Bft) S 174 -1,4 C 9,6 km/h (2 Bft)
07.03.2021 04:45 1,7 C 80 % 1024,6 hPa 0,0 mm 1,4 km/h (1 Bft) SW 235 -1,4 C 7,2 km/h (2 Bft)
07.03.2021 04:44 1,7 C 80 % 1024,7 hPa 0,0 mm 0,8 km/h (0 Bft) O-NO 77 -1,4 C 7,2 km/h (2 Bft)
07.03.2021 04:43 1,7 C 80 % 1024,7 hPa 0,0 mm 0,0 km/h (0 Bft) S-SW 200 -1,4 C 0,0 km/h (0 Bft)
07.03.2021 04:42 1,7 C 80 % 1024,7 hPa 0,0 mm 2,3 km/h (1 Bft) SO 146 -1,4 C 4,8 km/h (1 Bft)
07.03.2021 04:41 1,7 C 80 % 1024,7 hPa 0,0 mm 1,2 km/h (1 Bft) S-SW 207 -1,4 C 4,8 km/h (1 Bft)
07.03.2021 04:40 1,7 C 80 % 1024,7 hPa 0,0 mm 1,5 km/h (1 Bft) S-SO 163 -1,4 C 7,2 km/h (2 Bft)
07.03.2021 04:39 1,7 C 80 % 1024,7 hPa 0,0 mm 1,6 km/h (1 Bft) SO 130 -1,4 C 7,2 km/h (2 Bft)
07.03.2021 04:38 1,7 C 80 % 1024,7 hPa 0,0 mm 1,2 km/h (1 Bft) W 260 -1,4 C 7,2 km/h (2 Bft)
07.03.2021 04:37 1,7 C 80 % 1024,7 hPa 0,0 mm 0,5 km/h (0 Bft) W-SW 249 -1,4 C 2,4 km/h (1 Bft)
07.03.2021 04:36 1,7 C 80 % 1024,7 hPa 0,0 mm 0,0 km/h (0 Bft) W-SW 245 -1,4 C 0,0 km/h (0 Bft)
07.03.2021 04:35 1,7 C 80 % 1024,7 hPa 0,0 mm 1,6 km/h (1 Bft) SW 231 -1,4 C 7,2 km/h (2 Bft)
07.03.2021 04:34 1,7 C 80 % 1024,7 hPa 0,0 mm 3,6 km/h (1 Bft) W-SW 246 -1,4 C 12,0 km/h (2 Bft)
07.03.2021 04:33 1,7 C 80 % 1024,7 hPa 0,0 mm 1,1 km/h (1 Bft) SW 221 -1,4 C 4,8 km/h (1 Bft)
07.03.2021 04:32 1,7 C 80 % 1024,8 hPa 0,0 mm 2,2 km/h (1 Bft) O 80 -1,4 C 7,2 km/h (2 Bft)
07.03.2021 04:31 1,7 C 80 % 1024,7 hPa 0,0 mm 2,2 km/h (1 Bft) S-SO 152 -1,4 C 9,6 km/h (2 Bft)
07.03.2021 04:30 1,7 C 80 % 1024,7 hPa 0,0 mm 0,1 km/h (0 Bft) SW 236 -1,4 C 2,4 km/h (1 Bft)
07.03.2021 04:29 1,7 C 80 % 1024,7 hPa 0,0 mm 0,6 km/h (0 Bft) W-SW 243 -1,4 C 4,8 km/h (1 Bft)
07.03.2021 04:28 1,7 C 80 % 1024,8 hPa 0,0 mm 1,5 km/h (1 Bft) O 92 -1,4 C 4,8 km/h (1 Bft)
07.03.2021 04:27 1,7 C 80 % 1024,7 hPa 0,0 mm 1,3 km/h (1 Bft) W-SW 242 -1,4 C 7,2 km/h (2 Bft)
07.03.2021 04:26 1,7 C 81 % 1024,8 hPa 0,0 mm 2,2 km/h (1 Bft) S-SW 201 -1,2 C 4,8 km/h (1 Bft)
07.03.2021 04:25 1,7 C 81 % 1024,8 hPa 0,0 mm 0,2 km/h (0 Bft) W-SW 242 -1,2 C 2,4 km/h (1 Bft)
07.03.2021 04:24 1,7 C 81 % 1024,8 hPa 0,0 mm 0,4 km/h (0 Bft) S-SO 167 -1,2 C 2,4 km/h (1 Bft)
07.03.2021 04:23 1,7 C 81 % 1024,8 hPa 0,0 mm 0,2 km/h (0 Bft) W-SW 243 -1,2 C 2,4 km/h (1 Bft)
07.03.2021 04:22 1,7 C 81 % 1024,8 hPa 0,0 mm 1,2 km/h (1 Bft) SW 235 -1,2 C 4,8 km/h (1 Bft)
07.03.2021 04:21 1,7 C 81 % 1024,8 hPa 0,0 mm 0,6 km/h (0 Bft) S-SO 160 -1,2 C 2,4 km/h (1 Bft)
07.03.2021 04:20 1,7 C 81 % 1024,8 hPa 0,0 mm 0,6 km/h (0 Bft) W-SW 239 -1,2 C 2,4 km/h (1 Bft)
07.03.2021 04:19 1,7 C 81 % 1024,8 hPa 0,0 mm 1,3 km/h (1 Bft) W 270 -1,2 C 4,8 km/h (1 Bft)
07.03.2021 04:18 1,7 C 81 % 1024,8 hPa 0,0 mm 0,9 km/h (0 Bft) W 264 -1,2 C 4,8 km/h (1 Bft)
07.03.2021 04:17 1,7 C 81 % 1024,8 hPa 0,0 mm 0,6 km/h (0 Bft) W-NW 284 -1,2 C 2,4 km/h (1 Bft)
07.03.2021 04:16 1,7 C 81 % 1024,9 hPa 0,0 mm 0,8 km/h (0 Bft) W-SW 243 -1,2 C 4,8 km/h (1 Bft)
07.03.2021 04:15 1,7 C 81 % 1024,8 hPa 0,0 mm 0,5 km/h (0 Bft) SW 214 -1,2 C 2,4 km/h (1 Bft)
07.03.2021 04:14 1,7 C 81 % 1024,9 hPa 0,0 mm 1,7 km/h (1 Bft) SO 136 -1,2 C 4,8 km/h (1 Bft)
07.03.2021 04:13 1,7 C 81 % 1024,9 hPa 0,0 mm 1,6 km/h (1 Bft) SW 224 -1,2 C 4,8 km/h (1 Bft)
07.03.2021 04:12 1,7 C 81 % 1024,9 hPa 0,0 mm 1,2 km/h (1 Bft) SW 231 -1,2 C 7,2 km/h (2 Bft)
07.03.2021 04:11 1,7 C 81 % 1024,9 hPa 0,0 mm 2,9 km/h (1 Bft) W-SW 249 -1,2 C 9,6 km/h (2 Bft)
07.03.2021 04:10 1,7 C 81 % 1024,9 hPa 0,0 mm 0,8 km/h (0 Bft) W 264 -1,2 C 4,8 km/h (1 Bft)
07.03.2021 04:09 1,7 C 81 % 1024,9 hPa 0,0 mm 1,8 km/h (1 Bft) S-SO 155 -1,2 C 9,6 km/h (2 Bft)
07.03.2021 04:08 1,6 C 81 % 1024,9 hPa 0,0 mm 0,8 km/h (0 Bft) SW 221 -1,3 C 4,8 km/h (1 Bft)
07.03.2021 04:07 1,6 C 81 % 1024,9 hPa 0,0 mm 3,3 km/h (1 Bft) O 101 -1,3 C 12,0 km/h (2 Bft)
07.03.2021 04:06 1,6 C 82 % 1024,9 hPa 0,0 mm 0,4 km/h (0 Bft) W-SW 238 -1,1 C 2,4 km/h (1 Bft)
07.03.2021 04:05 1,6 C 82 % 1024,9 hPa 0,0 mm 0,8 km/h (0 Bft) S-SW 211 -1,1 C 7,2 km/h (2 Bft)
07.03.2021 04:04 1,6 C 82 % 1024,9 hPa 0,0 mm 0,3 km/h (0 Bft) SW 226 -1,1 C 2,4 km/h (1 Bft)
07.03.2021 04:03 1,6 C 82 % 1025,0 hPa 0,0 mm 0,8 km/h (0 Bft) S-SO 167 -1,1 C 4,8 km/h (1 Bft)
07.03.2021 04:02 1,6 C 82 % 1025,0 hPa 0,0 mm 0,3 km/h (0 Bft) SW 233 -1,1 C 2,4 km/h (1 Bft)
07.03.2021 04:00 1,6 C 82 % 1025,0 hPa 0,0 mm 1,2 km/h (1 Bft) S-SO 158 -1,1 C 7,2 km/h (2 Bft)
07.03.2021 03:59 1,6 C 82 % 1025,0 hPa 0,0 mm 2,1 km/h (1 Bft) W-SW 248 -1,1 C 12,0 km/h (2 Bft)
07.03.2021 03:58 1,6 C 82 % 1025,0 hPa 0,0 mm 2,7 km/h (1 Bft) S 179 -1,1 C 14,4 km/h (3 Bft)
07.03.2021 03:57 1,6 C 82 % 1025,0 hPa 0,0 mm 0,6 km/h (0 Bft) SO 134 -1,1 C 2,4 km/h (1 Bft)
07.03.2021 03:56 1,6 C 82 % 1025,0 hPa 0,0 mm 0,0 km/h (0 Bft) W-SW 238 -1,1 C 0,0 km/h (0 Bft)
07.03.2021 03:55 1,6 C 82 % 1025,0 hPa 0,0 mm 1,1 km/h (1 Bft) SO 136 -1,1 C 4,8 km/h (1 Bft)
07.03.2021 03:54 1,6 C 82 % 1025,0 hPa 0,0 mm 0,0 km/h (0 Bft) S-SW 195 -1,1 C 0,0 km/h (0 Bft)
07.03.2021 03:53 1,6 C 82 % 1025,0 hPa 0,0 mm 0,0 km/h (0 Bft) SW 232 -1,1 C 0,0 km/h (0 Bft)
07.03.2021 03:52 1,6 C 82 % 1025,0 hPa 0,0 mm 0,4 km/h (0 Bft) W-SW 248 -1,1 C 2,4 km/h (1 Bft)
07.03.2021 03:51 1,6 C 82 % 1025,0 hPa 0,0 mm 0,6 km/h (0 Bft) W-SW 243 -1,1 C 4,8 km/h (1 Bft)
07.03.2021 03:50 1,6 C 82 % 1025,0 hPa 0,0 mm 0,4 km/h (0 Bft) S-SW 200 -1,1 C 2,4 km/h (1 Bft)
07.03.2021 03:49 1,6 C 82 % 1025,0 hPa 0,0 mm 0,2 km/h (0 Bft) W-SW 250 -1,1 C 2,4 km/h (1 Bft)
07.03.2021 03:48 1,6 C 82 % 1025,0 hPa 0,0 mm 0,7 km/h (0 Bft) SW 225 -1,1 C 4,8 km/h (1 Bft)
07.03.2021 03:47 1,7 C 83 % 1025,0 hPa 0,0 mm 0,1 km/h (0 Bft) W 259 -0,9 C 2,4 km/h (1 Bft)
07.03.2021 03:46 1,6 C 83 % 1025,0 hPa 0,0 mm 1,9 km/h (1 Bft) S-SO 159 -1,0 C 7,2 km/h (2 Bft)
07.03.2021 03:45 1,7 C 83 % 1025,1 hPa 0,0 mm 1,9 km/h (1 Bft) W-SW 254 -0,9 C 7,2 km/h (2 Bft)
07.03.2021 03:44 1,7 C 83 % 1025,1 hPa 0,0 mm 0,4 km/h (0 Bft) W-SW 239 -0,9 C 2,4 km/h (1 Bft)
07.03.2021 03:43 1,7 C 83 % 1025,1 hPa 0,0 mm 0,3 km/h (0 Bft) W-SW 256 -0,9 C 2,4 km/h (1 Bft)
07.03.2021 03:42 1,7 C 83 % 1025,2 hPa 0,0 mm 0,2 km/h (0 Bft) W-SW 243 -0,9 C 2,4 km/h (1 Bft)
07.03.2021 03:41 1,7 C 83 % 1025,2 hPa 0,0 mm 0,1 km/h (0 Bft) SW 232 -0,9 C 2,4 km/h (1 Bft)
07.03.2021 03:40 1,7 C 83 % 1025,1 hPa 0,0 mm 1,7 km/h (1 Bft) W 264 -0,9 C 7,2 km/h (2 Bft)
07.03.2021 03:39 1,7 C 83 % 1025,2 hPa 0,0 mm 0,6 km/h (0 Bft) S 187 -0,9 C 2,4 km/h (1 Bft)
07.03.2021 03:38 1,7 C 83 % 1025,1 hPa 0,0 mm 1,4 km/h (1 Bft) SO 132 -0,9 C 9,6 km/h (2 Bft)
07.03.2021 03:37 1,7 C 83 % 1025,2 hPa 0,0 mm 0,9 km/h (0 Bft) S-SO 148 -0,9 C 7,2 km/h (2 Bft)
07.03.2021 03:36 1,7 C 83 % 1025,2 hPa 0,0 mm 0,2 km/h (0 Bft) W 260 -0,9 C 2,4 km/h (1 Bft)
07.03.2021 03:35 1,7 C 83 % 1025,1 hPa 0,0 mm 0,7 km/h (0 Bft) W-SW 255 -0,9 C 7,2 km/h (2 Bft)
07.03.2021 03:34 1,7 C 83 % 1025,2 hPa 0,0 mm 0,6 km/h (0 Bft) S-SO 160 -0,9 C 2,4 km/h (1 Bft)
07.03.2021 03:33 1,7 C 83 % 1025,2 hPa 0,0 mm 0,1 km/h (0 Bft) SW 225 -0,9 C 2,4 km/h (1 Bft)
07.03.2021 03:32 1,7 C 83 % 1025,2 hPa 0,0 mm 0,4 km/h (0 Bft) O-SO 122 -0,9 C 2,4 km/h (1 Bft)
07.03.2021 03:31 1,7 C 83 % 1025,2 hPa 0,0 mm 1,3 km/h (1 Bft) S-SO 158 -0,9 C 2,4 km/h (1 Bft)
07.03.2021 03:30 1,7 C 83 % 1025,2 hPa 0,0 mm 0,2 km/h (0 Bft) S-SW 195 -0,9 C 2,4 km/h (1 Bft)
07.03.2021 03:29 1,7 C 83 % 1025,3 hPa 0,0 mm 0,6 km/h (0 Bft) W-SW 250 -0,9 C 4,8 km/h (1 Bft)
07.03.2021 03:28 1,6 C 84 % 1025,3 hPa 0,0 mm 1,6 km/h (1 Bft) S 169 -0,8 C 7,2 km/h (2 Bft)
07.03.2021 03:27 1,6 C 84 % 1025,3 hPa 0,0 mm 0,1 km/h (0 Bft) W-SW 248 -0,8 C 2,4 km/h (1 Bft)
07.03.2021 03:26 1,6 C 84 % 1025,3 hPa 0,0 mm 0,3 km/h (0 Bft) SW 236 -0,8 C 2,4 km/h (1 Bft)
07.03.2021 03:25 1,6 C 84 % 1025,3 hPa 0,0 mm 0,1 km/h (0 Bft) W-SW 245 -0,8 C 2,4 km/h (1 Bft)
07.03.2021 03:24 1,6 C 84 % 1025,4 hPa 0,0 mm 0,8 km/h (0 Bft) W 277 -0,8 C 4,8 km/h (1 Bft)
07.03.2021 03:23 1,6 C 84 % 1025,3 hPa 0,0 mm 1,7 km/h (1 Bft) W-SW 248 -0,8 C 7,2 km/h (2 Bft)
07.03.2021 03:22 1,6 C 84 % 1025,4 hPa 0,0 mm 0,2 km/h (0 Bft) SW 215 -0,8 C 2,4 km/h (1 Bft)
07.03.2021 03:21 1,6 C 84 % 1025,4 hPa 0,0 mm 1,3 km/h (1 Bft) SW 231 -0,8 C 7,2 km/h (2 Bft)
07.03.2021 03:20 1,6 C 84 % 1025,4 hPa 0,0 mm 0,4 km/h (0 Bft) W-SW 239 -0,8 C 2,4 km/h (1 Bft)
07.03.2021 03:19 1,6 C 84 % 1025,4 hPa 0,0 mm 0,8 km/h (0 Bft) S-SO 167 -0,8 C 4,8 km/h (1 Bft)
07.03.2021 03:18 1,6 C 84 % 1025,4 hPa 0,0 mm 0,5 km/h (0 Bft) W-SW 239 -0,8 C 2,4 km/h (1 Bft)
07.03.2021 03:17 1,6 C 84 % 1025,4 hPa 0,0 mm 0,0 km/h (0 Bft) W-SW 250 -0,8 C 0,0 km/h (0 Bft)
07.03.2021 03:16 1,6 C 84 % 1025,5 hPa 0,0 mm 0,1 km/h (0 Bft) SW 217 -0,8 C 2,4 km/h (1 Bft)
07.03.2021 03:15 1,6 C 84 % 1025,5 hPa 0,0 mm 0,2 km/h (0 Bft) W-SW 239 -0,8 C 2,4 km/h (1 Bft)
07.03.2021 03:14 1,6 C 84 % 1025,5 hPa 0,0 mm 0,3 km/h (0 Bft) W-SW 245 -0,8 C 2,4 km/h (1 Bft)
07.03.2021 03:13 1,6 C 84 % 1025,5 hPa 0,0 mm 0,0 km/h (0 Bft) W-SW 247 -0,8 C 0,0 km/h (0 Bft)
07.03.2021 03:12 1,6 C 84 % 1025,5 hPa 0,0 mm 0,5 km/h (0 Bft) W 259 -0,8 C 2,4 km/h (1 Bft)
07.03.2021 03:11 1,6 C 84 % 1025,5 hPa 0,0 mm 0,3 km/h (0 Bft) S 184 -0,8 C 2,4 km/h (1 Bft)
07.03.2021 03:10 1,6 C 84 % 1025,5 hPa 0,0 mm 1,3 km/h (1 Bft) SW 233 -0,8 C 2,4 km/h (1 Bft)
07.03.2021 03:09 1,6 C 84 % 1025,4 hPa 0,0 mm 1,4 km/h (1 Bft) SW 235 -0,8 C 9,6 km/h (2 Bft)
07.03.2021 03:08 1,6 C 84 % 1025,5 hPa 0,0 mm 2,7 km/h (1 Bft) W-SW 239 -0,8 C 4,8 km/h (1 Bft)
07.03.2021 03:07 1,6 C 84 % 1025,5 hPa 0,0 mm 0,1 km/h (0 Bft) W-SW 257 -0,8 C 2,4 km/h (1 Bft)
07.03.2021 03:06 1,6 C 84 % 1025,4 hPa 0,0 mm 0,4 km/h (0 Bft) W 261 -0,8 C 2,4 km/h (1 Bft)
07.03.2021 03:05 1,6 C 84 % 1025,4 hPa 0,0 mm 0,0 km/h (0 Bft) W-SW 254 -0,8 C 0,0 km/h (0 Bft)
07.03.2021 03:04 1,6 C 84 % 1025,5 hPa 0,0 mm 0,0 km/h (0 Bft) S-SW 207 -0,8 C 0,0 km/h (0 Bft)
07.03.2021 03:03 1,6 C 84 % 1025,5 hPa 0,0 mm 0,3 km/h (0 Bft) W-SW 239 -0,8 C 2,4 km/h (1 Bft)
07.03.2021 03:02 1,6 C 84 % 1025,5 hPa 0,0 mm 0,3 km/h (0 Bft) SW 225 -0,8 C 2,4 km/h (1 Bft)
07.03.2021 03:00 1,6 C 84 % 1025,5 hPa 0,0 mm 0,0 km/h (0 Bft) W-SW 243 -0,8 C 0,0 km/h (0 Bft)
07.03.2021 02:59 1,6 C 84 % 1025,5 hPa 0,0 mm 0,6 km/h (0 Bft) SW 219 -0,8 C 2,4 km/h (1 Bft)
07.03.2021 02:58 1,6 C 83 % 1025,5 hPa 0,0 mm 0,0 km/h (0 Bft) W-SW 243 -1,0 C 0,0 km/h (0 Bft)
07.03.2021 02:57 1,7 C 83 % 1025,5 hPa 0,0 mm 0,4 km/h (0 Bft) W-SW 249 -0,9 C 2,4 km/h (1 Bft)
07.03.2021 02:56 1,7 C 83 % 1025,6 hPa 0,0 mm 0,8 km/h (0 Bft) S 179 -0,9 C 2,4 km/h (1 Bft)
07.03.2021 02:55 1,7 C 83 % 1025,6 hPa 0,0 mm 0,5 km/h (0 Bft) SW 217 -0,9 C 2,4 km/h (1 Bft)
07.03.2021 02:54 1,7 C 83 % 1025,6 hPa 0,0 mm 0,4 km/h (0 Bft) SW 226 -0,9 C 4,8 km/h (1 Bft)
07.03.2021 02:53 1,7 C 83 % 1025,6 hPa 0,0 mm 0,5 km/h (0 Bft) SW 231 -0,9 C 2,4 km/h (1 Bft)
07.03.2021 02:52 1,8 C 83 % 1025,6 hPa 0,0 mm 0,1 km/h (0 Bft) S-SW 208 -0,8 C 2,4 km/h (1 Bft)
07.03.2021 02:51 1,8 C 83 % 1025,6 hPa 0,0 mm 0,8 km/h (0 Bft) W 260 -0,8 C 4,8 km/h (1 Bft)
07.03.2021 02:50 1,8 C 83 % 1025,6 hPa 0,0 mm 0,4 km/h (0 Bft) S-SW 211 -0,8 C 2,4 km/h (1 Bft)
07.03.2021 02:49 1,8 C 83 % 1025,6 hPa 0,0 mm 0,9 km/h (0 Bft) W-SW 239 -0,8 C 4,8 km/h (1 Bft)
07.03.2021 02:48 1,8 C 83 % 1025,6 hPa 0,0 mm 1,5 km/h (1 Bft) SW 225 -0,8 C 4,8 km/h (1 Bft)
07.03.2021 02:47 1,9 C 83 % 1025,6 hPa 0,0 mm 1,2 km/h (1 Bft) S 187 -0,7 C 4,8 km/h (1 Bft)
07.03.2021 02:46 1,9 C 82 % 1025,6 hPa 0,0 mm 1,2 km/h (1 Bft) SW 233 -0,8 C 4,8 km/h (1 Bft)
07.03.2021 02:45 1,9 C 82 % 1025,7 hPa 0,0 mm 0,8 km/h (0 Bft) W-SW 239 -0,8 C 4,8 km/h (1 Bft)
07.03.2021 02:44 1,9 C 82 % 1025,6 hPa 0,0 mm 2,5 km/h (1 Bft) W-SW 253 -0,8 C 9,6 km/h (2 Bft)
07.03.2021 02:43 2,0 C 82 % 1025,7 hPa 0,0 mm 1,0 km/h (0 Bft) SW 228 -0,7 C 4,8 km/h (1 Bft)
07.03.2021 02:42 2,0 C 82 % 1025,7 hPa 0,0 mm 1,3 km/h (1 Bft) W-SW 257 -0,7 C 9,6 km/h (2 Bft)
07.03.2021 02:41 2,1 C 82 % 1025,7 hPa 0,0 mm 1,1 km/h (1 Bft) W-SW 238 -0,6 C 4,8 km/h (1 Bft)
07.03.2021 02:40 2,1 C 82 % 1025,7 hPa 0,0 mm 0,7 km/h (0 Bft) SW 235 -0,6 C 2,4 km/h (1 Bft)
07.03.2021 02:39 2,1 C 82 % 1025,7 hPa 0,0 mm 0,6 km/h (0 Bft) S-SO 167 -0,6 C 4,8 km/h (1 Bft)
07.03.2021 02:38 2,2 C 82 % 1025,7 hPa 0,0 mm 0,0 km/h (0 Bft) SW 233 -0,5 C 0,0 km/h (0 Bft)
07.03.2021 02:37 2,2 C 82 % 1025,7 hPa 0,0 mm 0,8 km/h (0 Bft) O-SO 123 -0,5 C 4,8 km/h (1 Bft)
07.03.2021 02:36 2,2 C 82 % 1025,8 hPa 0,0 mm 1,0 km/h (0 Bft) W-SW 238 -0,5 C 4,8 km/h (1 Bft)
07.03.2021 02:35 2,2 C 82 % 1025,8 hPa 0,0 mm 0,2 km/h (0 Bft) S 173 -0,5 C 2,4 km/h (1 Bft)
07.03.2021 02:34 2,2 C 82 % 1025,8 hPa 0,0 mm 1,7 km/h (1 Bft) S-SO 149 -0,5 C 7,2 km/h (2 Bft)
07.03.2021 02:33 2,2 C 82 % 1025,9 hPa 0,0 mm 1,8 km/h (1 Bft) S 191 -0,5 C 7,2 km/h (2 Bft)
07.03.2021 02:32 2,2 C 82 % 1025,8 hPa 0,0 mm 1,0 km/h (0 Bft) S-SO 160 -0,5 C 7,2 km/h (2 Bft)
07.03.2021 02:31 2,3 C 82 % 1025,9 hPa 0,0 mm 1,6 km/h (1 Bft) S-SO 158 -0,4 C 7,2 km/h (2 Bft)
07.03.2021 02:30 2,3 C 82 % 1025,9 hPa 0,0 mm 1,2 km/h (1 Bft) SW 232 -0,4 C 2,4 km/h (1 Bft)
07.03.2021 02:29 2,3 C 82 % 1025,9 hPa 0,0 mm 0,1 km/h (0 Bft) W-SW 249 -0,4 C 2,4 km/h (1 Bft)
07.03.2021 02:28 2,3 C 83 % 1025,9 hPa 0,0 mm 0,0 km/h (0 Bft) W 259 -0,3 C 0,0 km/h (0 Bft)
07.03.2021 02:27 2,3 C 83 % 1026,0 hPa 0,0 mm 0,0 km/h (0 Bft) S 178 -0,3 C 0,0 km/h (0 Bft)
07.03.2021 02:26 2,3 C 82 % 1026,0 hPa 0,0 mm 0,4 km/h (0 Bft) S 170 -0,4 C 2,4 km/h (1 Bft)
07.03.2021 02:25 2,4 C 82 % 1026,0 hPa 0,0 mm 0,1 km/h (0 Bft) S-SW 211 -0,4 C 2,4 km/h (1 Bft)
07.03.2021 02:24 2,4 C 82 % 1026,0 hPa 0,0 mm 0,8 km/h (0 Bft) S-SW 210 -0,4 C 4,8 km/h (1 Bft)
07.03.2021 02:23 2,4 C 82 % 1026,0 hPa 0,0 mm 0,8 km/h (0 Bft) SW 235 -0,4 C 4,8 km/h (1 Bft)
07.03.2021 02:22 2,4 C 82 % 1026,0 hPa 0,0 mm 0,2 km/h (0 Bft) O-NO 75 -0,4 C 2,4 km/h (1 Bft)
07.03.2021 02:21 2,4 C 83 % 1026,1 hPa 0,0 mm 0,6 km/h (0 Bft) W 262 -0,2 C 2,4 km/h (1 Bft)
07.03.2021 02:20 2,4 C 83 % 1026,1 hPa 0,0 mm 1,9 km/h (1 Bft) W 259 -0,2 C 4,8 km/h (1 Bft)
07.03.2021 02:19 2,4 C 83 % 1026,1 hPa 0,0 mm 2,7 km/h (1 Bft) W 271 -0,2 C 7,2 km/h (2 Bft)
07.03.2021 02:18 2,4 C 83 % 1026,1 hPa 0,0 mm 0,8 km/h (0 Bft) SW 222 -0,2 C 4,8 km/h (1 Bft)
07.03.2021 02:17 2,4 C 83 % 1026,1 hPa 0,0 mm 0,2 km/h (0 Bft) S 178 -0,2 C 2,4 km/h (1 Bft)
07.03.2021 02:16 2,4 C 83 % 1026,1 hPa 0,0 mm 0,1 km/h (0 Bft) SO 143 -0,2 C 2,4 km/h (1 Bft)
07.03.2021 02:15 2,4 C 83 % 1026,2 hPa 0,0 mm 0,2 km/h (0 Bft) SW 218 -0,2 C 2,4 km/h (1 Bft)
07.03.2021 02:14 2,4 C 83 % 1026,2 hPa 0,0 mm 0,8 km/h (0 Bft) W-SW 246 -0,2 C 4,8 km/h (1 Bft)
07.03.2021 02:13 2,4 C 83 % 1026,2 hPa 0,0 mm 0,8 km/h (0 Bft) S-SW 203 -0,2 C 4,8 km/h (1 Bft)
07.03.2021 02:12 2,4 C 83 % 1026,2 hPa 0,0 mm 0,1 km/h (0 Bft) SW 236 -0,2 C 2,4 km/h (1 Bft)
07.03.2021 02:11 2,4 C 83 % 1026,3 hPa 0,0 mm 0,4 km/h (0 Bft) W-NW 287 -0,2 C 2,4 km/h (1 Bft)
07.03.2021 02:10 2,4 C 83 % 1026,3 hPa 0,0 mm 0,6 km/h (0 Bft) S-SW 200 -0,2 C 4,8 km/h (1 Bft)
07.03.2021 02:09 2,4 C 83 % 1026,3 hPa 0,0 mm 0,1 km/h (0 Bft) S-SW 212 -0,2 C 2,4 km/h (1 Bft)
07.03.2021 02:08 2,4 C 83 % 1026,3 hPa 0,0 mm 0,0 km/h (0 Bft) W-SW 246 -0,2 C 0,0 km/h (0 Bft)
07.03.2021 02:07 2,4 C 83 % 1026,3 hPa 0,0 mm 0,2 km/h (0 Bft) SW 231 -0,2 C 2,4 km/h (1 Bft)
07.03.2021 02:06 2,4 C 83 % 1026,3 hPa 0,0 mm 0,8 km/h (0 Bft) W-SW 239 -0,2 C 4,8 km/h (1 Bft)
07.03.2021 02:05 2,4 C 83 % 1026,4 hPa 0,0 mm 0,8 km/h (0 Bft) W 278 -0,2 C 4,8 km/h (1 Bft)
07.03.2021 02:04 2,4 C 83 % 1026,4 hPa 0,0 mm 0,5 km/h (0 Bft) W 271 -0,2 C 2,4 km/h (1 Bft)
07.03.2021 02:03 2,4 C 83 % 1026,4 hPa 0,0 mm 0,7 km/h (0 Bft) SW 216 -0,2 C 2,4 km/h (1 Bft)
07.03.2021 02:02 2,4 C 84 % 1026,4 hPa 0,0 mm 0,3 km/h (0 Bft) W-SW 246 -0,0 C 2,4 km/h (1 Bft)
07.03.2021 02:00 2,4 C 84 % 1026,4 hPa 0,0 mm 0,1 km/h (0 Bft) S 177 -0,0 C 2,4 km/h (1 Bft)
07.03.2021 01:59 2,4 C 84 % 1026,5 hPa 0,0 mm 0,3 km/h (0 Bft) SW 218 -0,0 C 2,4 km/h (1 Bft)
07.03.2021 01:58 2,4 C 84 % 1026,5 hPa 0,0 mm 0,4 km/h (0 Bft) SW 219 -0,0 C 2,4 km/h (1 Bft)
07.03.2021 01:57 2,5 C 84 % 1026,5 hPa 0,0 mm 0,1 km/h (0 Bft) W-SW 256 0,1 C 2,4 km/h (1 Bft)
07.03.2021 01:56 2,5 C 84 % 1026,6 hPa 0,0 mm 0,1 km/h (0 Bft) SW 217 0,1 C 2,4 km/h (1 Bft)
07.03.2021 01:55 2,5 C 84 % 1026,6 hPa 0,0 mm 0,2 km/h (0 Bft) SW 228 0,1 C 2,4 km/h (1 Bft)
07.03.2021 01:54 2,5 C 84 % 1026,5 hPa 0,0 mm 0,3 km/h (0 Bft) S-SW 195 0,1 C 2,4 km/h (1 Bft)
07.03.2021 01:53 2,5 C 84 % 1026,5 hPa 0,0 mm 0,2 km/h (0 Bft) SW 233 0,1 C 2,4 km/h (1 Bft)
07.03.2021 01:52 2,5 C 84 % 1026,6 hPa 0,0 mm 0,0 km/h (0 Bft) S-SW 209 0,1 C 0,0 km/h (0 Bft)
07.03.2021 01:51 2,5 C 84 % 1026,6 hPa 0,0 mm 0,5 km/h (0 Bft) W-SW 246 0,1 C 2,4 km/h (1 Bft)
07.03.2021 01:50 2,5 C 84 % 1026,6 hPa 0,0 mm 0,0 km/h (0 Bft) W-SW 239 0,1 C 0,0 km/h (0 Bft)
07.03.2021 01:49 2,5 C 84 % 1026,6 hPa 0,0 mm 0,0 km/h (0 Bft) W-SW 246 0,1 C 0,0 km/h (0 Bft)
07.03.2021 01:48 2,5 C 84 % 1026,6 hPa 0,0 mm 0,0 km/h (0 Bft) SW 231 0,1 C 0,0 km/h (0 Bft)
07.03.2021 01:47 2,5 C 84 % 1026,7 hPa 0,0 mm 0,0 km/h (0 Bft) W 262 0,1 C 0,0 km/h (0 Bft)
07.03.2021 01:46 2,5 C 84 % 1026,7 hPa 0,0 mm 0,7 km/h (0 Bft) W-SW 249 0,1 C 4,8 km/h (1 Bft)
07.03.2021 01:45 2,5 C 84 % 1026,7 hPa 0,0 mm 0,0 km/h (0 Bft) SW 226 0,1 C 0,0 km/h (0 Bft)
07.03.2021 01:44 2,5 C 84 % 1026,7 hPa 0,0 mm 1,4 km/h (1 Bft) S 187 0,1 C 4,8 km/h (1 Bft)
07.03.2021 01:43 2,5 C 84 % 1026,7 hPa 0,0 mm 0,0 km/h (0 Bft) S-SO 158 0,1 C 0,0 km/h (0 Bft)
07.03.2021 01:42 2,5 C 84 % 1026,8 hPa 0,0 mm 0,0 km/h (0 Bft) S-SW 213 0,1 C 0,0 km/h (0 Bft)
07.03.2021 01:41 2,5 C 84 % 1026,8 hPa 0,0 mm 0,3 km/h (0 Bft) W-SW 257 0,1 C 2,4 km/h (1 Bft)
07.03.2021 01:40 2,5 C 84 % 1026,8 hPa 0,0 mm 0,1 km/h (0 Bft) S-SO 153 0,1 C 2,4 km/h (1 Bft)
07.03.2021 01:39 2,5 C 84 % 1026,8 hPa 0,0 mm 0,3 km/h (0 Bft) W-SW 255 0,1 C 2,4 km/h (1 Bft)
07.03.2021 01:38 2,5 C 84 % 1026,7 hPa 0,0 mm 0,3 km/h (0 Bft) W-SW 252 0,1 C 2,4 km/h (1 Bft)
07.03.2021 01:37 2,5 C 84 % 1026,8 hPa 0,0 mm 0,0 km/h (0 Bft) SO 136 0,1 C 0,0 km/h (0 Bft)
07.03.2021 01:36 2,5 C 84 % 1026,7 hPa 0,0 mm 0,1 km/h (0 Bft) W-SW 244 0,1 C 2,4 km/h (1 Bft)
07.03.2021 01:35 2,5 C 84 % 1026,7 hPa 0,0 mm 0,0 km/h (0 Bft) S 189 0,1 C 0,0 km/h (0 Bft)
07.03.2021 01:34 2,5 C 84 % 1026,8 hPa 0,0 mm 0,0 km/h (0 Bft) S-SO 160 0,1 C 0,0 km/h (0 Bft)
07.03.2021 01:33 2,5 C 84 % 1026,8 hPa 0,0 mm 0,0 km/h (0 Bft) S-SO 160 0,1 C 0,0 km/h (0 Bft)
07.03.2021 01:32 2,5 C 84 % 1026,7 hPa 0,0 mm 0,0 km/h (0 Bft) SW 232 0,1 C 0,0 km/h (0 Bft)
07.03.2021 01:31 2,5 C 84 % 1026,8 hPa 0,0 mm 0,0 km/h (0 Bft) SW 231 0,1 C 0,0 km/h (0 Bft)
07.03.2021 01:30 2,5 C 84 % 1026,8 hPa 0,0 mm 0,0 km/h (0 Bft) SW 231 0,1 C 0,0 km/h (0 Bft)
07.03.2021 01:29 2,5 C 84 % 1026,8 hPa 0,0 mm 0,0 km/h (0 Bft) SW 225 0,1 C 0,0 km/h (0 Bft)
07.03.2021 01:28 2,6 C 84 % 1026,9 hPa 0,0 mm 0,0 km/h (0 Bft) SW 225 0,2 C 0,0 km/h (0 Bft)
07.03.2021 01:27 2,6 C 84 % 1026,9 hPa 0,0 mm 0,0 km/h (0 Bft) SW 225 0,2 C 0,0 km/h (0 Bft)
07.03.2021 01:26 2,6 C 84 % 1026,9 hPa 0,0 mm 0,0 km/h (0 Bft) SW 222 0,2 C 0,0 km/h (0 Bft)
07.03.2021 01:25 2,6 C 84 % 1026,9 hPa 0,0 mm 0,3 km/h (0 Bft) S-SO 154 0,2 C 2,4 km/h (1 Bft)
07.03.2021 01:24 2,6 C 84 % 1026,9 hPa 0,0 mm 0,0 km/h (0 Bft) S-SO 158 0,2 C 0,0 km/h (0 Bft)
07.03.2021 01:23 2,6 C 84 % 1026,9 hPa 0,0 mm 0,3 km/h (0 Bft) SW 225 0,2 C 2,4 km/h (1 Bft)
07.03.2021 01:22 2,6 C 84 % 1026,9 hPa 0,0 mm 0,0 km/h (0 Bft) W-SW 243 0,2 C 0,0 km/h (0 Bft)
07.03.2021 01:21 2,6 C 84 % 1026,9 hPa 0,0 mm 0,0 km/h (0 Bft) W-SW 243 0,2 C 0,0 km/h (0 Bft)
07.03.2021 01:20 2,6 C 84 % 1026,9 hPa 0,0 mm 0,0 km/h (0 Bft) W-SW 243 0,2 C 0,0 km/h (0 Bft)
07.03.2021 01:19 2,6 C 84 % 1026,9 hPa 0,0 mm 0,0 km/h (0 Bft) W-SW 243 0,2 C 0,0 km/h (0 Bft)
07.03.2021 01:18 2,6 C 84 % 1027,0 hPa 0,0 mm 0,0 km/h (0 Bft) W-SW 242 0,2 C 0,0 km/h (0 Bft)
07.03.2021 01:17 2,6 C 84 % 1027,0 hPa 0,0 mm 0,0 km/h (0 Bft) W 270 0,2 C 0,0 km/h (0 Bft)
07.03.2021 01:16 2,6 C 84 % 1027,0 hPa 0,0 mm 0,1 km/h (0 Bft) S-SW 192 0,2 C 2,4 km/h (1 Bft)
07.03.2021 01:15 2,6 C 84 % 1027,0 hPa 0,0 mm 0,1 km/h (0 Bft) SW 219 0,2 C 2,4 km/h (1 Bft)
07.03.2021 01:14 2,6 C 84 % 1027,0 hPa 0,0 mm 0,0 km/h (0 Bft) W 276 0,2 C 0,0 km/h (0 Bft)
07.03.2021 01:13 2,6 C 84 % 1027,0 hPa 0,0 mm 0,0 km/h (0 Bft) S 169 0,2 C 0,0 km/h (0 Bft)
07.03.2021 01:12 2,6 C 84 % 1027,0 hPa 0,0 mm 0,3 km/h (0 Bft) W-SW 238 0,2 C 2,4 km/h (1 Bft)
07.03.2021 01:11 2,6 C 84 % 1027,0 hPa 0,0 mm 0,0 km/h (0 Bft) W-SW 238 0,2 C 0,0 km/h (0 Bft)
07.03.2021 01:10 2,6 C 84 % 1027,1 hPa 0,0 mm 0,0 km/h (0 Bft) SW 217 0,2 C 0,0 km/h (0 Bft)
07.03.2021 01:09 2,6 C 84 % 1027,1 hPa 0,0 mm 0,0 km/h (0 Bft) SW 217 0,2 C 0,0 km/h (0 Bft)
07.03.2021 01:08 2,6 C 84 % 1027,0 hPa 0,0 mm 0,1 km/h (0 Bft) SW 217 0,2 C 2,4 km/h (1 Bft)
07.03.2021 01:07 2,6 C 84 % 1027,1 hPa 0,0 mm 0,1 km/h (0 Bft) S-SW 197 0,2 C 2,4 km/h (1 Bft)
07.03.2021 01:06 2,6 C 84 % 1027,1 hPa 0,0 mm 0,0 km/h (0 Bft) SW 233 0,2 C 0,0 km/h (0 Bft)
07.03.2021 01:05 2,6 C 84 % 1027,1 hPa 0,0 mm 0,0 km/h (0 Bft) S-SW 205 0,2 C 0,0 km/h (0 Bft)
07.03.2021 01:04 2,6 C 84 % 1027,1 hPa 0,0 mm 0,0 km/h (0 Bft) S-SW 203 0,2 C 0,0 km/h (0 Bft)
07.03.2021 01:03 2,6 C 84 % 1027,1 hPa 0,0 mm 0,0 km/h (0 Bft) S-SW 203 0,2 C 0,0 km/h (0 Bft)
07.03.2021 01:02 2,6 C 84 % 1027,1 hPa 0,0 mm 0,0 km/h (0 Bft) S-SW 203 0,2 C 0,0 km/h (0 Bft)
07.03.2021 01:00 2,6 C 84 % 1027,1 hPa 0,0 mm 0,0 km/h (0 Bft) S-SW 203 0,2 C 0,0 km/h (0 Bft)
07.03.2021 00:59 2,6 C 84 % 1027,1 hPa 0,0 mm 0,1 km/h (0 Bft) S-SW 203 0,2 C 2,4 km/h (1 Bft)
07.03.2021 00:58 2,6 C 84 % 1027,1 hPa 0,0 mm 0,1 km/h (0 Bft) W-SW 243 0,2 C 2,4 km/h (1 Bft)
07.03.2021 00:57 2,6 C 84 % 1027,1 hPa 0,0 mm 0,1 km/h (0 Bft) SW 217 0,2 C 2,4 km/h (1 Bft)
07.03.2021 00:56 2,6 C 84 % 1027,1 hPa 0,0 mm 0,0 km/h (0 Bft) W-SW 239 0,2 C 0,0 km/h (0 Bft)
07.03.2021 00:55 2,6 C 84 % 1027,1 hPa 0,0 mm 0,0 km/h (0 Bft) W-SW 238 0,2 C 0,0 km/h (0 Bft)
07.03.2021 00:54 2,6 C 84 % 1027,2 hPa 0,0 mm 0,0 km/h (0 Bft) SW 224 0,2 C 0,0 km/h (0 Bft)
07.03.2021 00:53 2,6 C 84 % 1027,2 hPa 0,0 mm 0,0 km/h (0 Bft) W-SW 256 0,2 C 0,0 km/h (0 Bft)
07.03.2021 00:52 2,6 C 84 % 1027,2 hPa 0,0 mm 0,0 km/h (0 Bft) SW 225 0,2 C 0,0 km/h (0 Bft)
07.03.2021 00:51 2,6 C 84 % 1027,2 hPa 0,0 mm 0,0 km/h (0 Bft) S 172 0,2 C 0,0 km/h (0 Bft)
07.03.2021 00:50 2,6 C 84 % 1027,2 hPa 0,0 mm 0,1 km/h (0 Bft) S 170 0,2 C 2,4 km/h (1 Bft)
07.03.2021 00:49 2,6 C 84 % 1027,2 hPa 0,0 mm 0,1 km/h (0 Bft) S-SO 158 0,2 C 2,4 km/h (1 Bft)
07.03.2021 00:48 2,6 C 84 % 1027,2 hPa 0,0 mm 0,0 km/h (0 Bft) SO 127 0,2 C 0,0 km/h (0 Bft)
07.03.2021 00:47 2,6 C 84 % 1027,2 hPa 0,0 mm 0,0 km/h (0 Bft) SO 127 0,2 C 0,0 km/h (0 Bft)
07.03.2021 00:46 2,6 C 84 % 1027,2 hPa 0,0 mm 0,0 km/h (0 Bft) W-SW 239 0,2 C 0,0 km/h (0 Bft)
07.03.2021 00:45 2,6 C 84 % 1027,2 hPa 0,0 mm 0,0 km/h (0 Bft) W-SW 239 0,2 C 0,0 km/h (0 Bft)
07.03.2021 00:44 2,6 C 84 % 1027,2 hPa 0,0 mm 0,0 km/h (0 Bft) W-SW 239 0,2 C 0,0 km/h (0 Bft)
07.03.2021 00:43 2,6 C 84 % 1027,2 hPa 0,0 mm 0,0 km/h (0 Bft) SW 226 0,2 C 0,0 km/h (0 Bft)
07.03.2021 00:42 2,7 C 84 % 1027,2 hPa 0,0 mm 0,0 km/h (0 Bft) SW 226 0,3 C 0,0 km/h (0 Bft)
07.03.2021 00:41 2,7 C 84 % 1027,2 hPa 0,0 mm 0,0 km/h (0 Bft) SW 226 0,3 C 0,0 km/h (0 Bft)
07.03.2021 00:40 2,7 C 84 % 1027,2 hPa 0,0 mm 0,0 km/h (0 Bft) SW 226 0,3 C 0,0 km/h (0 Bft)
07.03.2021 00:39 2,7 C 84 % 1027,2 hPa 0,0 mm 0,0 km/h (0 Bft) SW 226 0,3 C 0,0 km/h (0 Bft)
07.03.2021 00:38 2,7 C 84 % 1027,2 hPa 0,0 mm 0,0 km/h (0 Bft) SW 225 0,3 C 0,0 km/h (0 Bft)
07.03.2021 00:37 2,7 C 84 % 1027,2 hPa 0,0 mm 0,0 km/h (0 Bft) SW 226 0,3 C 0,0 km/h (0 Bft)
07.03.2021 00:36 2,7 C 84 % 1027,2 hPa 0,0 mm 0,0 km/h (0 Bft) SW 226 0,3 C 0,0 km/h (0 Bft)
07.03.2021 00:35 2,7 C 84 % 1027,2 hPa 0,0 mm 0,0 km/h (0 Bft) SW 226 0,3 C 0,0 km/h (0 Bft)
07.03.2021 00:34 2,7 C 84 % 1027,2 hPa 0,0 mm 0,2 km/h (0 Bft) S 170 0,3 C 2,4 km/h (1 Bft)
07.03.2021 00:33 2,7 C 84 % 1027,3 hPa 0,0 mm 0,0 km/h (0 Bft) SW 235 0,3 C 0,0 km/h (0 Bft)
07.03.2021 00:32 2,7 C 84 % 1027,3 hPa 0,0 mm 0,1 km/h (0 Bft) W-SW 238 0,3 C 2,4 km/h (1 Bft)
07.03.2021 00:31 2,7 C 84 % 1027,3 hPa 0,0 mm 0,0 km/h (0 Bft) SW 236 0,3 C 0,0 km/h (0 Bft)
07.03.2021 00:30 2,7 C 84 % 1027,3 hPa 0,0 mm 0,0 km/h (0 Bft) SW 236 0,3 C 0,0 km/h (0 Bft)
07.03.2021 00:29 2,7 C 84 % 1027,3 hPa 0,0 mm 0,0 km/h (0 Bft) SW 224 0,3 C 0,0 km/h (0 Bft)
07.03.2021 00:28 2,7 C 84 % 1027,3 hPa 0,0 mm 0,2 km/h (0 Bft) SW 224 0,3 C 2,4 km/h (1 Bft)
07.03.2021 00:27 2,7 C 84 % 1027,3 hPa 0,0 mm 0,0 km/h (0 Bft) W-SW 242 0,3 C 0,0 km/h (0 Bft)
07.03.2021 00:26 2,7 C 84 % 1027,3 hPa 0,0 mm 0,0 km/h (0 Bft) W-SW 240 0,3 C 0,0 km/h (0 Bft)
07.03.2021 00:25 2,7 C 84 % 1027,3 hPa 0,0 mm 0,0 km/h (0 Bft) SW 222 0,3 C 0,0 km/h (0 Bft)
07.03.2021 00:24 2,7 C 84 % 1027,3 hPa 0,0 mm 0,1 km/h (0 Bft) SW 222 0,3 C 2,4 km/h (1 Bft)
07.03.2021 00:23 2,7 C 84 % 1027,3 hPa 0,0 mm 0,0 km/h (0 Bft) S-SW 203 0,3 C 0,0 km/h (0 Bft)
07.03.2021 00:22 2,7 C 84 % 1027,3 hPa 0,0 mm 0,0 km/h (0 Bft) S-SW 194 0,3 C 0,0 km/h (0 Bft)
07.03.2021 00:21 2,8 C 83 % 1027,3 hPa 0,0 mm 0,0 km/h (0 Bft) S-SW 195 0,2 C 0,0 km/h (0 Bft)
07.03.2021 00:20 2,8 C 83 % 1027,3 hPa 0,0 mm 0,0 km/h (0 Bft) S-SO 150 0,2 C 0,0 km/h (0 Bft)
07.03.2021 00:19 2,8 C 83 % 1027,4 hPa 0,0 mm 0,0 km/h (0 Bft) S-SO 150 0,2 C 0,0 km/h (0 Bft)
07.03.2021 00:18 2,8 C 83 % 1027,3 hPa 0,0 mm 0,1 km/h (0 Bft) S-SO 162 0,2 C 2,4 km/h (1 Bft)
07.03.2021 00:17 2,8 C 83 % 1027,4 hPa 0,0 mm 0,0 km/h (0 Bft) S-SO 158 0,2 C 0,0 km/h (0 Bft)
07.03.2021 00:16 2,8 C 83 % 1027,3 hPa 0,0 mm 0,0 km/h (0 Bft) SO 146 0,2 C 0,0 km/h (0 Bft)
07.03.2021 00:15 2,8 C 83 % 1027,4 hPa 0,0 mm 0,0 km/h (0 Bft) SO 145 0,2 C 0,0 km/h (0 Bft)
07.03.2021 00:14 2,9 C 83 % 1027,4 hPa 0,0 mm 0,0 km/h (0 Bft) W-SW 245 0,3 C 0,0 km/h (0 Bft)
07.03.2021 00:13 2,9 C 83 % 1027,4 hPa 0,0 mm 0,0 km/h (0 Bft) S 177 0,3 C 0,0 km/h (0 Bft)
07.03.2021 00:12 2,9 C 82 % 1027,4 hPa 0,0 mm 0,0 km/h (0 Bft) S-SO 155 0,1 C 0,0 km/h (0 Bft)
07.03.2021 00:11 2,9 C 82 % 1027,4 hPa 0,0 mm 0,0 km/h (0 Bft) S-SW 193 0,1 C 0,0 km/h (0 Bft)
07.03.2021 00:10 2,9 C 82 % 1027,4 hPa 0,0 mm 0,0 km/h (0 Bft) O-SO 111 0,1 C 0,0 km/h (0 Bft)
07.03.2021 00:09 2,9 C 82 % 1027,4 hPa 0,0 mm 0,1 km/h (0 Bft) SW 235 0,1 C 2,4 km/h (1 Bft)
07.03.2021 00:08 2,9 C 82 % 1027,4 hPa 0,0 mm 0,1 km/h (0 Bft) S-SO 149 0,1 C 2,4 km/h (1 Bft)
07.03.2021 00:07 2,9 C 82 % 1027,5 hPa 0,0 mm 0,2 km/h (0 Bft) S-SO 158 0,1 C 2,4 km/h (1 Bft)
07.03.2021 00:06 2,9 C 82 % 1027,4 hPa 0,0 mm 0,2 km/h (0 Bft) S-SO 159 0,1 C 2,4 km/h (1 Bft)
07.03.2021 00:05 2,9 C 82 % 1027,4 hPa 0,0 mm 1,6 km/h (1 Bft) O-SO 120 0,1 C 4,8 km/h (1 Bft)
07.03.2021 00:04 2,9 C 82 % 1027,5 hPa 0,0 mm 0,0 km/h (0 Bft) SO 134 0,1 C 0,0 km/h (0 Bft)
07.03.2021 00:03 2,9 C 82 % 1027,5 hPa 0,0 mm 0,0 km/h (0 Bft) SO 134 0,1 C 0,0 km/h (0 Bft)
07.03.2021 00:02 2,9 C 82 % 1027,4 hPa 0,0 mm 0,5 km/h (0 Bft) SO 143 0,1 C 4,8 km/h (1 Bft)
07.03.2021 00:00 2,9 C 82 % 1027,4 hPa 0,0 mm 1,7 km/h (1 Bft) S-SW 199 0,1 C 4,8 km/h (1 Bft)
_ Min-Zeit 07:02 09:04 10:10 - 00:03 - - 07:11 00:03
Minimum _ 0,9 C 78 % 1023,2 hPa - 0,0 km/h (0 Bft) - - -2,3 C 0,0 km/h (0 Bft)
_ Max-Zeit 00:00 00:22 00:03 00:00 10:15 - - 00:13 03:58
Maximum _ 2,9 C 84 % 1027,5 hPa 0,0 mm 6,1 km/h
W-SW (2 Bft)
- - 0,3 C 14,4 km/h
SO (3 Bft)
Durchschnitt _ 1,8 C 81 % 1024,9 hPa #0,0 mm 0,9 km/h (0 Bft) SW - -1,1 C 3,9 km/h (1 Bft)